<?xml version="1.0" encoding="UTF-8"?>
<gpx version="1.1" creator="RouteBuddy" xmlns:xsi="http://www.w3.org/2001/XMLSchema-instance" xmlns="http://www.topografix.com/GPX/1/1" xsi:schemaLocation="http://www.topografix.com/GPX/1/1 http://www.topografix.com/GPX/1/1/gpx.xsd">
    <trk>
        <name><![CDATA[The Great Ridge to Cavedal]]></name>
        <desc><![CDATA[07 JUN 2015 10:11]]></desc>
        <trkseg>
        <trkpt lat="53.34361724" lon="-1.77764819"><ele>192.39999390</ele><time>2015-06-07T09:11:19.000Z</time></trkpt>
        <trkpt lat="53.34361707" lon="-1.77767711"><ele>191.44000244</ele><time>2015-06-07T09:11:37.000Z</time></trkpt>
        <trkpt lat="53.34360139" lon="-1.77766529"><ele>195.77000427</ele><time>2015-06-07T09:12:05.000Z</time></trkpt>
        <trkpt lat="53.34360718" lon="-1.77768566"><ele>193.36000061</ele><time>2015-06-07T09:12:28.000Z</time></trkpt>
        <trkpt lat="53.34359880" lon="-1.77767308"><ele>192.39999390</ele><time>2015-06-07T09:12:51.000Z</time></trkpt>
        <trkpt lat="53.34360265" lon="-1.77768054"><ele>193.36000061</ele><time>2015-06-07T09:13:11.000Z</time></trkpt>
        <trkpt lat="53.34361078" lon="-1.77769194"><ele>191.91999817</ele><time>2015-06-07T09:13:34.000Z</time></trkpt>
        <trkpt lat="53.34361430" lon="-1.77769689"><ele>191.44000244</ele><time>2015-06-07T09:13:57.000Z</time></trkpt>
        <trkpt lat="53.34361682" lon="-1.77768239"><ele>193.83999634</ele><time>2015-06-07T09:14:11.000Z</time></trkpt>
        <trkpt lat="53.34361841" lon="-1.77767174"><ele>193.83999634</ele><time>2015-06-07T09:14:31.000Z</time></trkpt>
        <trkpt lat="53.34361900" lon="-1.77766537"><ele>192.88000488</ele><time>2015-06-07T09:14:58.000Z</time></trkpt>
        <trkpt lat="53.34361908" lon="-1.77766663"><ele>192.39999390</ele><time>2015-06-07T09:15:33.000Z</time></trkpt>
        <trkpt lat="53.34362956" lon="-1.77767325"><ele>192.88000488</ele><time>2015-06-07T09:16:01.000Z</time></trkpt>
        <trkpt lat="53.34364029" lon="-1.77766051"><ele>193.83999634</ele><time>2015-06-07T09:16:25.000Z</time></trkpt>
        <trkpt lat="53.34364221" lon="-1.77766277"><ele>194.32000732</ele><time>2015-06-07T09:16:54.000Z</time></trkpt>
        <trkpt lat="53.34363668" lon="-1.77765548"><ele>192.88000488</ele><time>2015-06-07T09:17:20.000Z</time></trkpt>
        <trkpt lat="53.34362327" lon="-1.77764593"><ele>193.36000061</ele><time>2015-06-07T09:17:45.000Z</time></trkpt>
        <trkpt lat="53.34360659" lon="-1.77764475"><ele>193.83999634</ele><time>2015-06-07T09:18:09.000Z</time></trkpt>
        <trkpt lat="53.34360500" lon="-1.77762799"><ele>194.80000305</ele><time>2015-06-07T09:18:19.000Z</time></trkpt>
        <trkpt lat="53.34360575" lon="-1.77762749"><ele>194.32000732</ele><time>2015-06-07T09:18:36.000Z</time></trkpt>
        <trkpt lat="53.34360978" lon="-1.77765280"><ele>194.32000732</ele><time>2015-06-07T09:18:55.000Z</time></trkpt>
        <trkpt lat="53.34357390" lon="-1.77766948"><ele>194.32000732</ele><time>2015-06-07T09:19:09.000Z</time></trkpt>
        <trkpt lat="53.34353903" lon="-1.77761936"><ele>194.80000305</ele><time>2015-06-07T09:19:14.000Z</time></trkpt>
        <trkpt lat="53.34352872" lon="-1.77751726"><ele>193.36000061</ele><time>2015-06-07T09:19:21.000Z</time></trkpt>
        <trkpt lat="53.34349629" lon="-1.77743328"><ele>194.32000732</ele><time>2015-06-07T09:19:27.000Z</time></trkpt>
        <trkpt lat="53.34339000" lon="-1.77729364"><ele>195.77000427</ele><time>2015-06-07T09:19:41.000Z</time></trkpt>
        <trkpt lat="53.34334482" lon="-1.77725248"><ele>196.72999573</ele><time>2015-06-07T09:19:55.000Z</time></trkpt>
        <trkpt lat="53.34331775" lon="-1.77721987"><ele>197.21000671</ele><time>2015-06-07T09:20:17.000Z</time></trkpt>
        <trkpt lat="53.34328137" lon="-1.77716212"><ele>197.69000244</ele><time>2015-06-07T09:20:32.000Z</time></trkpt>
        <trkpt lat="53.34326721" lon="-1.77716648"><ele>194.80000305</ele><time>2015-06-07T09:21:01.000Z</time></trkpt>
        <trkpt lat="53.34322982" lon="-1.77715441"><ele>194.80000305</ele><time>2015-06-07T09:21:08.000Z</time></trkpt>
        <trkpt lat="53.34321792" lon="-1.77713212"><ele>194.80000305</ele><time>2015-06-07T09:21:10.000Z</time></trkpt>
        <trkpt lat="53.34321700" lon="-1.77710110"><ele>195.27999878</ele><time>2015-06-07T09:21:12.000Z</time></trkpt>
        <trkpt lat="53.34320895" lon="-1.77679433"><ele>196.72999573</ele><time>2015-06-07T09:21:29.000Z</time></trkpt>
        <trkpt lat="53.34320426" lon="-1.77657992"><ele>197.69000244</ele><time>2015-06-07T09:21:44.000Z</time></trkpt>
        <trkpt lat="53.34320476" lon="-1.77652233"><ele>198.16999817</ele><time>2015-06-07T09:21:47.000Z</time></trkpt>
        <trkpt lat="53.34319705" lon="-1.77644623"><ele>198.64999390</ele><time>2015-06-07T09:21:51.000Z</time></trkpt>
        <trkpt lat="53.34319345" lon="-1.77628772"><ele>198.64999390</ele><time>2015-06-07T09:22:00.000Z</time></trkpt>
        <trkpt lat="53.34318716" lon="-1.77623844"><ele>198.64999390</ele><time>2015-06-07T09:22:03.000Z</time></trkpt>
        <trkpt lat="53.34315766" lon="-1.77607080"><ele>201.52999878</ele><time>2015-06-07T09:22:13.000Z</time></trkpt>
        <trkpt lat="53.34314760" lon="-1.77575128"><ele>204.41999817</ele><time>2015-06-07T09:22:30.000Z</time></trkpt>
        <trkpt lat="53.34318381" lon="-1.77551223"><ele>209.69999695</ele><time>2015-06-07T09:22:45.000Z</time></trkpt>
        <trkpt lat="53.34312824" lon="-1.77536253"><ele>205.86000061</ele><time>2015-06-07T09:22:57.000Z</time></trkpt>
        <trkpt lat="53.34316269" lon="-1.77537544"><ele>206.82000732</ele><time>2015-06-07T09:23:02.000Z</time></trkpt>
        <trkpt lat="53.34321164" lon="-1.77537795"><ele>208.25999451</ele><time>2015-06-07T09:23:07.000Z</time></trkpt>
        <trkpt lat="53.34325740" lon="-1.77539974"><ele>210.19000244</ele><time>2015-06-07T09:23:11.000Z</time></trkpt>
        <trkpt lat="53.34352738" lon="-1.77520528"><ele>201.52999878</ele><time>2015-06-07T09:23:30.000Z</time></trkpt>
        <trkpt lat="53.34368857" lon="-1.77517653"><ele>199.61000061</ele><time>2015-06-07T09:23:45.000Z</time></trkpt>
        <trkpt lat="53.34380239" lon="-1.77514083"><ele>199.61000061</ele><time>2015-06-07T09:23:58.000Z</time></trkpt>
        <trkpt lat="53.34381094" lon="-1.77511501"><ele>199.13000488</ele><time>2015-06-07T09:24:17.000Z</time></trkpt>
        <trkpt lat="53.34383701" lon="-1.77512063"><ele>199.13000488</ele><time>2015-06-07T09:24:22.000Z</time></trkpt>
        <trkpt lat="53.34389702" lon="-1.77518760"><ele>201.05000305</ele><time>2015-06-07T09:24:29.000Z</time></trkpt>
        <trkpt lat="53.34399434" lon="-1.77522129"><ele>201.52999878</ele><time>2015-06-07T09:24:39.000Z</time></trkpt>
        <trkpt lat="53.34410297" lon="-1.77528843"><ele>202.00999451</ele><time>2015-06-07T09:24:48.000Z</time></trkpt>
        <trkpt lat="53.34424362" lon="-1.77535892"><ele>199.61000061</ele><time>2015-06-07T09:25:01.000Z</time></trkpt>
        <trkpt lat="53.34435568" lon="-1.77539337"><ele>199.61000061</ele><time>2015-06-07T09:25:17.000Z</time></trkpt>
        <trkpt lat="53.34438317" lon="-1.77538063"><ele>199.13000488</ele><time>2015-06-07T09:25:19.000Z</time></trkpt>
        <trkpt lat="53.34441964" lon="-1.77539966"><ele>198.16999817</ele><time>2015-06-07T09:25:31.000Z</time></trkpt>
        <trkpt lat="53.34445090" lon="-1.77539237"><ele>197.21000671</ele><time>2015-06-07T09:25:39.000Z</time></trkpt>
        <trkpt lat="53.34451620" lon="-1.77533646"><ele>196.72999573</ele><time>2015-06-07T09:25:46.000Z</time></trkpt>
        <trkpt lat="53.34475600" lon="-1.77531467"><ele>195.77000427</ele><time>2015-06-07T09:26:03.000Z</time></trkpt>
        <trkpt lat="53.34492900" lon="-1.77539572"><ele>196.72999573</ele><time>2015-06-07T09:26:19.000Z</time></trkpt>
        <trkpt lat="53.34514031" lon="-1.77553159"><ele>195.77000427</ele><time>2015-06-07T09:26:38.000Z</time></trkpt>
        <trkpt lat="53.34523570" lon="-1.77558105"><ele>195.77000427</ele><time>2015-06-07T09:26:46.000Z</time></trkpt>
        <trkpt lat="53.34539504" lon="-1.77572890"><ele>195.27999878</ele><time>2015-06-07T09:27:04.000Z</time></trkpt>
        <trkpt lat="53.34551389" lon="-1.77588942"><ele>196.25000000</ele><time>2015-06-07T09:27:19.000Z</time></trkpt>
        <trkpt lat="53.34552940" lon="-1.77592185"><ele>195.77000427</ele><time>2015-06-07T09:27:22.000Z</time></trkpt>
        <trkpt lat="53.34554692" lon="-1.77593250"><ele>194.80000305</ele><time>2015-06-07T09:27:24.000Z</time></trkpt>
        <trkpt lat="53.34566167" lon="-1.77607667"><ele>196.25000000</ele><time>2015-06-07T09:27:38.000Z</time></trkpt>
        <trkpt lat="53.34578798" lon="-1.77623802"><ele>198.16999817</ele><time>2015-06-07T09:27:54.000Z</time></trkpt>
        <trkpt lat="53.34592486" lon="-1.77637188"><ele>199.13000488</ele><time>2015-06-07T09:28:10.000Z</time></trkpt>
        <trkpt lat="53.34605050" lon="-1.77651923"><ele>201.52999878</ele><time>2015-06-07T09:28:25.000Z</time></trkpt>
        <trkpt lat="53.34619878" lon="-1.77670849"><ele>200.08999634</ele><time>2015-06-07T09:28:43.000Z</time></trkpt>
        <trkpt lat="53.34620724" lon="-1.77671663"><ele>200.08999634</ele><time>2015-06-07T09:28:44.000Z</time></trkpt>
        <trkpt lat="53.34628176" lon="-1.77673498"><ele>199.61000061</ele><time>2015-06-07T09:28:57.000Z</time></trkpt>
        <trkpt lat="53.34629140" lon="-1.77674387"><ele>199.61000061</ele><time>2015-06-07T09:28:58.000Z</time></trkpt>
        <trkpt lat="53.34630556" lon="-1.77676633"><ele>199.61000061</ele><time>2015-06-07T09:29:00.000Z</time></trkpt>
        <trkpt lat="53.34640279" lon="-1.77687865"><ele>203.94000244</ele><time>2015-06-07T09:29:17.000Z</time></trkpt>
        <trkpt lat="53.34651243" lon="-1.77700832"><ele>209.22000122</ele><time>2015-06-07T09:29:32.000Z</time></trkpt>
        <trkpt lat="53.34663749" lon="-1.77726396"><ele>209.22000122</ele><time>2015-06-07T09:29:48.000Z</time></trkpt>
        <trkpt lat="53.34675333" lon="-1.77750218"><ele>207.77999878</ele><time>2015-06-07T09:30:04.000Z</time></trkpt>
        <trkpt lat="53.34689112" lon="-1.77775120"><ele>207.30000305</ele><time>2015-06-07T09:30:22.000Z</time></trkpt>
        <trkpt lat="53.34690948" lon="-1.77778842"><ele>207.30000305</ele><time>2015-06-07T09:30:25.000Z</time></trkpt>
        <trkpt lat="53.34692867" lon="-1.77783159"><ele>208.25999451</ele><time>2015-06-07T09:30:28.000Z</time></trkpt>
        <trkpt lat="53.34694427" lon="-1.77785598"><ele>208.25999451</ele><time>2015-06-07T09:30:30.000Z</time></trkpt>
        <trkpt lat="53.34704267" lon="-1.77802529"><ele>212.11000061</ele><time>2015-06-07T09:30:44.000Z</time></trkpt>
        <trkpt lat="53.34713747" lon="-1.77822906"><ele>211.63000488</ele><time>2015-06-07T09:30:56.000Z</time></trkpt>
        <trkpt lat="53.34723428" lon="-1.77841228"><ele>214.02999878</ele><time>2015-06-07T09:31:09.000Z</time></trkpt>
        <trkpt lat="53.34737996" lon="-1.77868017"><ele>216.42999268</ele><time>2015-06-07T09:31:27.000Z</time></trkpt>
        <trkpt lat="53.34750443" lon="-1.77891411"><ele>213.55000305</ele><time>2015-06-07T09:31:42.000Z</time></trkpt>
        <trkpt lat="53.34762806" lon="-1.77912558"><ele>210.19000244</ele><time>2015-06-07T09:31:59.000Z</time></trkpt>
        <trkpt lat="53.34773510" lon="-1.77920840"><ele>211.14999390</ele><time>2015-06-07T09:32:13.000Z</time></trkpt>
        <trkpt lat="53.34780282" lon="-1.77926808"><ele>212.11000061</ele><time>2015-06-07T09:32:28.000Z</time></trkpt>
        <trkpt lat="53.34782386" lon="-1.77928962"><ele>213.55000305</ele><time>2015-06-07T09:32:45.000Z</time></trkpt>
        <trkpt lat="53.34791179" lon="-1.77935441"><ele>214.50999451</ele><time>2015-06-07T09:32:59.000Z</time></trkpt>
        <trkpt lat="53.34793920" lon="-1.77936673"><ele>214.99000549</ele><time>2015-06-07T09:33:01.000Z</time></trkpt>
        <trkpt lat="53.34810298" lon="-1.77936380"><ele>214.99000549</ele><time>2015-06-07T09:33:14.000Z</time></trkpt>
        <trkpt lat="53.34813684" lon="-1.77934921"><ele>215.94999695</ele><time>2015-06-07T09:33:17.000Z</time></trkpt>
        <trkpt lat="53.34829954" lon="-1.77926640"><ele>220.75999451</ele><time>2015-06-07T09:33:34.000Z</time></trkpt>
        <trkpt lat="53.34832552" lon="-1.77924721"><ele>221.72000122</ele><time>2015-06-07T09:33:37.000Z</time></trkpt>
        <trkpt lat="53.34834463" lon="-1.77923807"><ele>222.19999695</ele><time>2015-06-07T09:33:39.000Z</time></trkpt>
        <trkpt lat="53.34857974" lon="-1.77897010"><ele>214.99000549</ele><time>2015-06-07T09:33:57.000Z</time></trkpt>
        <trkpt lat="53.34870463" lon="-1.77884228"><ele>214.02999878</ele><time>2015-06-07T09:34:08.000Z</time></trkpt>
        <trkpt lat="53.34878443" lon="-1.77876726"><ele>213.55000305</ele><time>2015-06-07T09:34:15.000Z</time></trkpt>
        <trkpt lat="53.34889867" lon="-1.77865595"><ele>212.11000061</ele><time>2015-06-07T09:34:26.000Z</time></trkpt>
        <trkpt lat="53.34907386" lon="-1.77843869"><ele>210.66999817</ele><time>2015-06-07T09:34:44.000Z</time></trkpt>
        <trkpt lat="53.34916304" lon="-1.77824012"><ele>211.63000488</ele><time>2015-06-07T09:34:58.000Z</time></trkpt>
        <trkpt lat="53.34927787" lon="-1.77790250"><ele>213.07000732</ele><time>2015-06-07T09:35:16.000Z</time></trkpt>
        <trkpt lat="53.34940846" lon="-1.77769521"><ele>212.58999634</ele><time>2015-06-07T09:35:31.000Z</time></trkpt>
        <trkpt lat="53.34955925" lon="-1.77742481"><ele>211.63000488</ele><time>2015-06-07T09:35:50.000Z</time></trkpt>
        <trkpt lat="53.34962497" lon="-1.77709624"><ele>211.14999390</ele><time>2015-06-07T09:36:08.000Z</time></trkpt>
        <trkpt lat="53.34971675" lon="-1.77679332"><ele>210.66999817</ele><time>2015-06-07T09:36:24.000Z</time></trkpt>
        <trkpt lat="53.34983091" lon="-1.77650264"><ele>210.19000244</ele><time>2015-06-07T09:36:43.000Z</time></trkpt>
        <trkpt lat="53.34991473" lon="-1.77631916"><ele>209.69999695</ele><time>2015-06-07T09:37:00.000Z</time></trkpt>
        <trkpt lat="53.34991766" lon="-1.77631647"><ele>210.19000244</ele><time>2015-06-07T09:37:21.000Z</time></trkpt>
        <trkpt lat="53.34992780" lon="-1.77627984"><ele>209.69999695</ele><time>2015-06-07T09:37:33.000Z</time></trkpt>
        <trkpt lat="53.35002042" lon="-1.77598857"><ele>209.69999695</ele><time>2015-06-07T09:37:50.000Z</time></trkpt>
        <trkpt lat="53.35012034" lon="-1.77565313"><ele>209.69999695</ele><time>2015-06-07T09:38:08.000Z</time></trkpt>
        <trkpt lat="53.35020055" lon="-1.77546018"><ele>209.22000122</ele><time>2015-06-07T09:38:26.000Z</time></trkpt>
        <trkpt lat="53.35020013" lon="-1.77546001"><ele>209.22000122</ele><time>2015-06-07T09:38:28.000Z</time></trkpt>
        <trkpt lat="53.35028655" lon="-1.77542782"><ele>209.22000122</ele><time>2015-06-07T09:38:43.000Z</time></trkpt>
        <trkpt lat="53.35028764" lon="-1.77543151"><ele>210.66999817</ele><time>2015-06-07T09:39:10.000Z</time></trkpt>
        <trkpt lat="53.35038965" lon="-1.77523429"><ele>211.14999390</ele><time>2015-06-07T09:39:24.000Z</time></trkpt>
        <trkpt lat="53.35044111" lon="-1.77515692"><ele>211.63000488</ele><time>2015-06-07T09:39:30.000Z</time></trkpt>
        <trkpt lat="53.35045377" lon="-1.77510663"><ele>212.11000061</ele><time>2015-06-07T09:39:33.000Z</time></trkpt>
        <trkpt lat="53.35048160" lon="-1.77502281"><ele>211.63000488</ele><time>2015-06-07T09:39:38.000Z</time></trkpt>
        <trkpt lat="53.35061998" lon="-1.77466021"><ele>210.66999817</ele><time>2015-06-07T09:39:59.000Z</time></trkpt>
        <trkpt lat="53.35073548" lon="-1.77432753"><ele>209.22000122</ele><time>2015-06-07T09:40:19.000Z</time></trkpt>
        <trkpt lat="53.35082911" lon="-1.77410918"><ele>208.74000549</ele><time>2015-06-07T09:40:34.000Z</time></trkpt>
        <trkpt lat="53.35089155" lon="-1.77391397"><ele>206.82000732</ele><time>2015-06-07T09:40:46.000Z</time></trkpt>
        <trkpt lat="53.35089667" lon="-1.77380551"><ele>206.33999634</ele><time>2015-06-07T09:40:59.000Z</time></trkpt>
        <trkpt lat="53.35090136" lon="-1.77371691"><ele>205.86000061</ele><time>2015-06-07T09:41:12.000Z</time></trkpt>
        <trkpt lat="53.35089960" lon="-1.77368187"><ele>207.30000305</ele><time>2015-06-07T09:41:27.000Z</time></trkpt>
        <trkpt lat="53.35091176" lon="-1.77359361"><ele>208.25999451</ele><time>2015-06-07T09:41:38.000Z</time></trkpt>
        <trkpt lat="53.35092223" lon="-1.77356184"><ele>208.25999451</ele><time>2015-06-07T09:41:40.000Z</time></trkpt>
        <trkpt lat="53.35098744" lon="-1.77335657"><ele>209.22000122</ele><time>2015-06-07T09:41:53.000Z</time></trkpt>
        <trkpt lat="53.35103681" lon="-1.77321861"><ele>210.19000244</ele><time>2015-06-07T09:42:02.000Z</time></trkpt>
        <trkpt lat="53.35110890" lon="-1.77305181"><ele>210.66999817</ele><time>2015-06-07T09:42:14.000Z</time></trkpt>
        <trkpt lat="53.35115567" lon="-1.77280362"><ele>212.11000061</ele><time>2015-06-07T09:42:28.000Z</time></trkpt>
        <trkpt lat="53.35117009" lon="-1.77278358"><ele>212.58999634</ele><time>2015-06-07T09:42:30.000Z</time></trkpt>
        <trkpt lat="53.35122205" lon="-1.77265652"><ele>214.02999878</ele><time>2015-06-07T09:42:45.000Z</time></trkpt>
        <trkpt lat="53.35120571" lon="-1.77268451"><ele>215.47000122</ele><time>2015-06-07T09:43:02.000Z</time></trkpt>
        <trkpt lat="53.35124192" lon="-1.77263238"><ele>215.47000122</ele><time>2015-06-07T09:43:17.000Z</time></trkpt>
        <trkpt lat="53.35126438" lon="-1.77264386"><ele>214.99000549</ele><time>2015-06-07T09:43:33.000Z</time></trkpt>
        <trkpt lat="53.35126514" lon="-1.77264134"><ele>214.99000549</ele><time>2015-06-07T09:43:35.000Z</time></trkpt>
        <trkpt lat="53.35138567" lon="-1.77233918"><ele>215.94999695</ele><time>2015-06-07T09:43:54.000Z</time></trkpt>
        <trkpt lat="53.35145792" lon="-1.77214111"><ele>218.36000061</ele><time>2015-06-07T09:44:07.000Z</time></trkpt>
        <trkpt lat="53.35153009" lon="-1.77181422"><ele>220.75999451</ele><time>2015-06-07T09:44:26.000Z</time></trkpt>
        <trkpt lat="53.35157527" lon="-1.77161624"><ele>221.24000549</ele><time>2015-06-07T09:44:37.000Z</time></trkpt>
        <trkpt lat="53.35161240" lon="-1.77153502"><ele>220.27999878</ele><time>2015-06-07T09:44:45.000Z</time></trkpt>
        <trkpt lat="53.35166655" lon="-1.77134315"><ele>218.83999634</ele><time>2015-06-07T09:44:56.000Z</time></trkpt>
        <trkpt lat="53.35168976" lon="-1.77130233"><ele>218.83999634</ele><time>2015-06-07T09:44:59.000Z</time></trkpt>
        <trkpt lat="53.35178096" lon="-1.77106320"><ele>218.83999634</ele><time>2015-06-07T09:45:15.000Z</time></trkpt>
        <trkpt lat="53.35189034" lon="-1.77087762"><ele>224.61000061</ele><time>2015-06-07T09:45:33.000Z</time></trkpt>
        <trkpt lat="53.35198439" lon="-1.77077654"><ele>231.33000183</ele><time>2015-06-07T09:45:47.000Z</time></trkpt>
        <trkpt lat="53.35210685" lon="-1.77051569"><ele>229.41000366</ele><time>2015-06-07T09:46:00.000Z</time></trkpt>
        <trkpt lat="53.35219645" lon="-1.77033464"><ele>228.92999268</ele><time>2015-06-07T09:46:13.000Z</time></trkpt>
        <trkpt lat="53.35228211" lon="-1.77020883"><ele>230.85000610</ele><time>2015-06-07T09:46:27.000Z</time></trkpt>
        <trkpt lat="53.35233006" lon="-1.77010213"><ele>230.36999512</ele><time>2015-06-07T09:46:31.000Z</time></trkpt>
        <trkpt lat="53.35242678" lon="-1.77001513"><ele>223.63999939</ele><time>2015-06-07T09:46:49.000Z</time></trkpt>
        <trkpt lat="53.35246257" lon="-1.76996970"><ele>220.75999451</ele><time>2015-06-07T09:47:08.000Z</time></trkpt>
        <trkpt lat="53.35252116" lon="-1.76974632"><ele>218.83999634</ele><time>2015-06-07T09:47:26.000Z</time></trkpt>
        <trkpt lat="53.35253206" lon="-1.76967507"><ele>218.36000061</ele><time>2015-06-07T09:47:30.000Z</time></trkpt>
        <trkpt lat="53.35253458" lon="-1.76956921"><ele>217.88000488</ele><time>2015-06-07T09:47:35.000Z</time></trkpt>
        <trkpt lat="53.35257313" lon="-1.76915539"><ele>216.91000366</ele><time>2015-06-07T09:47:55.000Z</time></trkpt>
        <trkpt lat="53.35260415" lon="-1.76878575"><ele>216.91000366</ele><time>2015-06-07T09:48:13.000Z</time></trkpt>
        <trkpt lat="53.35264203" lon="-1.76838744"><ele>216.91000366</ele><time>2015-06-07T09:48:33.000Z</time></trkpt>
        <trkpt lat="53.35266734" lon="-1.76805192"><ele>216.91000366</ele><time>2015-06-07T09:48:49.000Z</time></trkpt>
        <trkpt lat="53.35274320" lon="-1.76767725"><ele>216.42999268</ele><time>2015-06-07T09:49:08.000Z</time></trkpt>
        <trkpt lat="53.35282518" lon="-1.76733434"><ele>216.91000366</ele><time>2015-06-07T09:49:26.000Z</time></trkpt>
        <trkpt lat="53.35289919" lon="-1.76699521"><ele>217.88000488</ele><time>2015-06-07T09:49:46.000Z</time></trkpt>
        <trkpt lat="53.35292978" lon="-1.76682581"><ele>218.36000061</ele><time>2015-06-07T09:50:01.000Z</time></trkpt>
        <trkpt lat="53.35293598" lon="-1.76682984"><ele>217.39999390</ele><time>2015-06-07T09:50:15.000Z</time></trkpt>
        <trkpt lat="53.35294085" lon="-1.76676907"><ele>217.39999390</ele><time>2015-06-07T09:50:18.000Z</time></trkpt>
        <trkpt lat="53.35292132" lon="-1.76668181"><ele>216.91000366</ele><time>2015-06-07T09:50:23.000Z</time></trkpt>
        <trkpt lat="53.35284747" lon="-1.76648123"><ele>217.39999390</ele><time>2015-06-07T09:50:35.000Z</time></trkpt>
        <trkpt lat="53.35281344" lon="-1.76636254"><ele>218.36000061</ele><time>2015-06-07T09:50:48.000Z</time></trkpt>
        <trkpt lat="53.35279819" lon="-1.76632357"><ele>218.36000061</ele><time>2015-06-07T09:51:00.000Z</time></trkpt>
        <trkpt lat="53.35279089" lon="-1.76630395"><ele>217.39999390</ele><time>2015-06-07T09:51:23.000Z</time></trkpt>
        <trkpt lat="53.35285728" lon="-1.76625928"><ele>217.88000488</ele><time>2015-06-07T09:51:42.000Z</time></trkpt>
        <trkpt lat="53.35295308" lon="-1.76627688"><ele>218.36000061</ele><time>2015-06-07T09:51:53.000Z</time></trkpt>
        <trkpt lat="53.35311284" lon="-1.76629390"><ele>217.39999390</ele><time>2015-06-07T09:52:07.000Z</time></trkpt>
        <trkpt lat="53.35318350" lon="-1.76630722"><ele>218.83999634</ele><time>2015-06-07T09:52:21.000Z</time></trkpt>
        <trkpt lat="53.35322441" lon="-1.76629482"><ele>219.32000732</ele><time>2015-06-07T09:52:41.000Z</time></trkpt>
        <trkpt lat="53.35325567" lon="-1.76630722"><ele>219.80000305</ele><time>2015-06-07T09:52:53.000Z</time></trkpt>
        <trkpt lat="53.35330881" lon="-1.76629800"><ele>219.32000732</ele><time>2015-06-07T09:53:05.000Z</time></trkpt>
        <trkpt lat="53.35332407" lon="-1.76631250"><ele>218.83999634</ele><time>2015-06-07T09:53:17.000Z</time></trkpt>
        <trkpt lat="53.35331501" lon="-1.76631938"><ele>218.36000061</ele><time>2015-06-07T09:53:51.000Z</time></trkpt>
        <trkpt lat="53.35331887" lon="-1.76631695"><ele>218.36000061</ele><time>2015-06-07T09:54:06.000Z</time></trkpt>
        <trkpt lat="53.35333329" lon="-1.76629909"><ele>217.88000488</ele><time>2015-06-07T09:54:08.000Z</time></trkpt>
        <trkpt lat="53.35341526" lon="-1.76627747"><ele>218.83999634</ele><time>2015-06-07T09:54:16.000Z</time></trkpt>
        <trkpt lat="53.35358432" lon="-1.76625861"><ele>221.72000122</ele><time>2015-06-07T09:54:33.000Z</time></trkpt>
        <trkpt lat="53.35373553" lon="-1.76623179"><ele>224.61000061</ele><time>2015-06-07T09:54:48.000Z</time></trkpt>
        <trkpt lat="53.35391055" lon="-1.76621695"><ele>226.05000305</ele><time>2015-06-07T09:55:05.000Z</time></trkpt>
        <trkpt lat="53.35404583" lon="-1.76620848"><ele>227.00999451</ele><time>2015-06-07T09:55:19.000Z</time></trkpt>
        <trkpt lat="53.35408120" lon="-1.76619658"><ele>227.49000549</ele><time>2015-06-07T09:55:23.000Z</time></trkpt>
        <trkpt lat="53.35422831" lon="-1.76617521"><ele>229.41000366</ele><time>2015-06-07T09:55:39.000Z</time></trkpt>
        <trkpt lat="53.35437004" lon="-1.76614696"><ele>232.30000305</ele><time>2015-06-07T09:55:55.000Z</time></trkpt>
        <trkpt lat="53.35453299" lon="-1.76611846"><ele>235.17999268</ele><time>2015-06-07T09:56:13.000Z</time></trkpt>
        <trkpt lat="53.35455042" lon="-1.76611109"><ele>235.17999268</ele><time>2015-06-07T09:56:15.000Z</time></trkpt>
        <trkpt lat="53.35467054" lon="-1.76610396"><ele>238.05999756</ele><time>2015-06-07T09:56:30.000Z</time></trkpt>
        <trkpt lat="53.35480423" lon="-1.76607924"><ele>240.47000122</ele><time>2015-06-07T09:56:45.000Z</time></trkpt>
        <trkpt lat="53.35492711" lon="-1.76606599"><ele>244.30999756</ele><time>2015-06-07T09:56:59.000Z</time></trkpt>
        <trkpt lat="53.35506465" lon="-1.76605191"><ele>246.72000122</ele><time>2015-06-07T09:57:14.000Z</time></trkpt>
        <trkpt lat="53.35518963" lon="-1.76603951"><ele>248.16000366</ele><time>2015-06-07T09:57:29.000Z</time></trkpt>
        <trkpt lat="53.35527889" lon="-1.76601796"><ele>250.55999756</ele><time>2015-06-07T09:57:42.000Z</time></trkpt>
        <trkpt lat="53.35535022" lon="-1.76592224"><ele>253.44000244</ele><time>2015-06-07T09:57:55.000Z</time></trkpt>
        <trkpt lat="53.35536749" lon="-1.76587841"><ele>253.92999268</ele><time>2015-06-07T09:57:59.000Z</time></trkpt>
        <trkpt lat="53.35542357" lon="-1.76573415"><ele>258.25000000</ele><time>2015-06-07T09:58:13.000Z</time></trkpt>
        <trkpt lat="53.35545366" lon="-1.76566165"><ele>259.69000244</ele><time>2015-06-07T09:58:20.000Z</time></trkpt>
        <trkpt lat="53.35555776" lon="-1.76549720"><ele>263.05999756</ele><time>2015-06-07T09:58:36.000Z</time></trkpt>
        <trkpt lat="53.35564250" lon="-1.76533794"><ele>266.42001343</ele><time>2015-06-07T09:58:51.000Z</time></trkpt>
        <trkpt lat="53.35573906" lon="-1.76513837"><ele>266.89999390</ele><time>2015-06-07T09:59:06.000Z</time></trkpt>
        <trkpt lat="53.35589052" lon="-1.76499998"><ele>271.23001099</ele><time>2015-06-07T09:59:20.000Z</time></trkpt>
        <trkpt lat="53.35598222" lon="-1.76502949"><ele>272.67001343</ele><time>2015-06-07T09:59:29.000Z</time></trkpt>
        <trkpt lat="53.35617861" lon="-1.76507743"><ele>276.04000854</ele><time>2015-06-07T09:59:48.000Z</time></trkpt>
        <trkpt lat="53.35621306" lon="-1.76509847"><ele>275.07000732</ele><time>2015-06-07T10:00:05.000Z</time></trkpt>
        <trkpt lat="53.35623736" lon="-1.76512638"><ele>274.10998535</ele><time>2015-06-07T10:00:23.000Z</time></trkpt>
        <trkpt lat="53.35624097" lon="-1.76516569"><ele>273.14999390</ele><time>2015-06-07T10:00:35.000Z</time></trkpt>
        <trkpt lat="53.35624960" lon="-1.76516636"><ele>271.70999146</ele><time>2015-06-07T10:01:01.000Z</time></trkpt>
        <trkpt lat="53.35629679" lon="-1.76517491"><ele>272.19000244</ele><time>2015-06-07T10:01:18.000Z</time></trkpt>
        <trkpt lat="53.35643183" lon="-1.76523283"><ele>275.55999756</ele><time>2015-06-07T10:01:34.000Z</time></trkpt>
        <trkpt lat="53.35656971" lon="-1.76527885"><ele>278.44000244</ele><time>2015-06-07T10:01:49.000Z</time></trkpt>
        <trkpt lat="53.35666685" lon="-1.76531355"><ele>280.35998535</ele><time>2015-06-07T10:02:02.000Z</time></trkpt>
        <trkpt lat="53.35674807" lon="-1.76535856"><ele>283.25000000</ele><time>2015-06-07T10:02:14.000Z</time></trkpt>
        <trkpt lat="53.35676291" lon="-1.76541220"><ele>281.79998779</ele><time>2015-06-07T10:02:30.000Z</time></trkpt>
        <trkpt lat="53.35676459" lon="-1.76539200"><ele>281.32000732</ele><time>2015-06-07T10:02:37.000Z</time></trkpt>
        <trkpt lat="53.35677020" lon="-1.76536300"><ele>281.32000732</ele><time>2015-06-07T10:02:39.000Z</time></trkpt>
        <trkpt lat="53.35683801" lon="-1.76527223"><ele>282.27999878</ele><time>2015-06-07T10:02:52.000Z</time></trkpt>
        <trkpt lat="53.35682862" lon="-1.76523744"><ele>282.27999878</ele><time>2015-06-07T10:03:15.000Z</time></trkpt>
        <trkpt lat="53.35683332" lon="-1.76524264"><ele>282.27999878</ele><time>2015-06-07T10:03:19.000Z</time></trkpt>
        <trkpt lat="53.35683248" lon="-1.76526275"><ele>282.27999878</ele><time>2015-06-07T10:03:27.000Z</time></trkpt>
        <trkpt lat="53.35685897" lon="-1.76521339"><ele>281.79998779</ele><time>2015-06-07T10:03:41.000Z</time></trkpt>
        <trkpt lat="53.35689719" lon="-1.76520400"><ele>282.27999878</ele><time>2015-06-07T10:03:52.000Z</time></trkpt>
        <trkpt lat="53.35693415" lon="-1.76513434"><ele>283.73001099</ele><time>2015-06-07T10:04:09.000Z</time></trkpt>
        <trkpt lat="53.35702585" lon="-1.76517667"><ele>286.13000488</ele><time>2015-06-07T10:04:22.000Z</time></trkpt>
        <trkpt lat="53.35712350" lon="-1.76520023"><ele>289.01000977</ele><time>2015-06-07T10:04:37.000Z</time></trkpt>
        <trkpt lat="53.35720975" lon="-1.76520458"><ele>290.45999146</ele><time>2015-06-07T10:04:50.000Z</time></trkpt>
        <trkpt lat="53.35730363" lon="-1.76521347"><ele>292.85998535</ele><time>2015-06-07T10:05:03.000Z</time></trkpt>
        <trkpt lat="53.35738393" lon="-1.76520710"><ele>293.82000732</ele><time>2015-06-07T10:05:17.000Z</time></trkpt>
        <trkpt lat="53.35743941" lon="-1.76521431"><ele>294.77999878</ele><time>2015-06-07T10:05:24.000Z</time></trkpt>
        <trkpt lat="53.35755450" lon="-1.76525102"><ele>296.70001221</ele><time>2015-06-07T10:05:37.000Z</time></trkpt>
        <trkpt lat="53.35757134" lon="-1.76526468"><ele>297.17999268</ele><time>2015-06-07T10:05:39.000Z</time></trkpt>
        <trkpt lat="53.35762063" lon="-1.76527382"><ele>298.14999390</ele><time>2015-06-07T10:05:44.000Z</time></trkpt>
        <trkpt lat="53.35775700" lon="-1.76534766"><ele>300.54998779</ele><time>2015-06-07T10:06:00.000Z</time></trkpt>
        <trkpt lat="53.35788743" lon="-1.76541556"><ele>302.95001221</ele><time>2015-06-07T10:06:15.000Z</time></trkpt>
        <trkpt lat="53.35801072" lon="-1.76546786"><ele>304.39001465</ele><time>2015-06-07T10:06:29.000Z</time></trkpt>
        <trkpt lat="53.35813276" lon="-1.76546786"><ele>306.32000732</ele><time>2015-06-07T10:06:42.000Z</time></trkpt>
        <trkpt lat="53.35819932" lon="-1.76547691"><ele>306.79998779</ele><time>2015-06-07T10:06:49.000Z</time></trkpt>
        <trkpt lat="53.35824542" lon="-1.76547306"><ele>307.27999878</ele><time>2015-06-07T10:06:54.000Z</time></trkpt>
        <trkpt lat="53.35826285" lon="-1.76547666"><ele>307.76000977</ele><time>2015-06-07T10:06:56.000Z</time></trkpt>
        <trkpt lat="53.35838313" lon="-1.76546107"><ele>309.67999268</ele><time>2015-06-07T10:07:09.000Z</time></trkpt>
        <trkpt lat="53.35852521" lon="-1.76545864"><ele>312.08999634</ele><time>2015-06-07T10:07:24.000Z</time></trkpt>
        <trkpt lat="53.35862529" lon="-1.76546778"><ele>313.52999878</ele><time>2015-06-07T10:07:36.000Z</time></trkpt>
        <trkpt lat="53.35869486" lon="-1.76551731"><ele>314.48999023</ele><time>2015-06-07T10:07:53.000Z</time></trkpt>
        <trkpt lat="53.35875512" lon="-1.76557783"><ele>317.36999512</ele><time>2015-06-07T10:08:05.000Z</time></trkpt>
        <trkpt lat="53.35876954" lon="-1.76557817"><ele>316.89001465</ele><time>2015-06-07T10:08:17.000Z</time></trkpt>
        <trkpt lat="53.35876937" lon="-1.76557733"><ele>316.41000366</ele><time>2015-06-07T10:08:49.000Z</time></trkpt>
        <trkpt lat="53.35877683" lon="-1.76556417"><ele>317.36999512</ele><time>2015-06-07T10:09:07.000Z</time></trkpt>
        <trkpt lat="53.35883928" lon="-1.76548094"><ele>320.26000977</ele><time>2015-06-07T10:09:20.000Z</time></trkpt>
        <trkpt lat="53.35891547" lon="-1.76543986"><ele>323.14001465</ele><time>2015-06-07T10:09:33.000Z</time></trkpt>
        <trkpt lat="53.35898579" lon="-1.76541698"><ele>325.54000854</ele><time>2015-06-07T10:09:46.000Z</time></trkpt>
        <trkpt lat="53.35905603" lon="-1.76541983"><ele>328.91000366</ele><time>2015-06-07T10:09:58.000Z</time></trkpt>
        <trkpt lat="53.35913935" lon="-1.76539863"><ele>332.26998901</ele><time>2015-06-07T10:10:12.000Z</time></trkpt>
        <trkpt lat="53.35921680" lon="-1.76538949"><ele>335.64001465</ele><time>2015-06-07T10:10:25.000Z</time></trkpt>
        <trkpt lat="53.35928829" lon="-1.76535487"><ele>338.04000854</ele><time>2015-06-07T10:10:38.000Z</time></trkpt>
        <trkpt lat="53.35936826" lon="-1.76534230"><ele>339.95999146</ele><time>2015-06-07T10:10:51.000Z</time></trkpt>
        <trkpt lat="53.35941562" lon="-1.76530156"><ele>342.36999512</ele><time>2015-06-07T10:11:04.000Z</time></trkpt>
        <trkpt lat="53.35945325" lon="-1.76534364"><ele>343.32998657</ele><time>2015-06-07T10:11:13.000Z</time></trkpt>
        <trkpt lat="53.35954444" lon="-1.76544229"><ele>345.25000000</ele><time>2015-06-07T10:11:27.000Z</time></trkpt>
        <trkpt lat="53.35956557" lon="-1.76546543"><ele>346.20999146</ele><time>2015-06-07T10:11:30.000Z</time></trkpt>
        <trkpt lat="53.35966263" lon="-1.76556392"><ele>348.13000488</ele><time>2015-06-07T10:11:44.000Z</time></trkpt>
        <trkpt lat="53.35976841" lon="-1.76565788"><ele>351.01998901</ele><time>2015-06-07T10:11:58.000Z</time></trkpt>
        <trkpt lat="53.35985332" lon="-1.76572552"><ele>352.94000244</ele><time>2015-06-07T10:12:10.000Z</time></trkpt>
        <trkpt lat="53.35992306" lon="-1.76579291"><ele>355.33999634</ele><time>2015-06-07T10:12:22.000Z</time></trkpt>
        <trkpt lat="53.36002196" lon="-1.76588905"><ele>360.63000488</ele><time>2015-06-07T10:12:37.000Z</time></trkpt>
        <trkpt lat="53.36014291" lon="-1.76595451"><ele>361.10998535</ele><time>2015-06-07T10:12:51.000Z</time></trkpt>
        <trkpt lat="53.36025733" lon="-1.76599232"><ele>362.07000732</ele><time>2015-06-07T10:13:04.000Z</time></trkpt>
        <trkpt lat="53.36032907" lon="-1.76603305"><ele>362.54998779</ele><time>2015-06-07T10:13:15.000Z</time></trkpt>
        <trkpt lat="53.36037752" lon="-1.76611645"><ele>364.95999146</ele><time>2015-06-07T10:13:27.000Z</time></trkpt>
        <trkpt lat="53.36046972" lon="-1.76620362"><ele>367.35998535</ele><time>2015-06-07T10:13:40.000Z</time></trkpt>
        <trkpt lat="53.36056092" lon="-1.76628560"><ele>369.76000977</ele><time>2015-06-07T10:13:53.000Z</time></trkpt>
        <trkpt lat="53.36064306" lon="-1.76636254"><ele>372.17001343</ele><time>2015-06-07T10:14:05.000Z</time></trkpt>
        <trkpt lat="53.36073576" lon="-1.76645575"><ele>373.60998535</ele><time>2015-06-07T10:14:18.000Z</time></trkpt>
        <trkpt lat="53.36083744" lon="-1.76651719"><ele>376.01000977</ele><time>2015-06-07T10:14:31.000Z</time></trkpt>
        <trkpt lat="53.36092000" lon="-1.76659539"><ele>377.45001221</ele><time>2015-06-07T10:14:44.000Z</time></trkpt>
        <trkpt lat="53.36103919" lon="-1.76672179"><ele>379.38000488</ele><time>2015-06-07T10:14:59.000Z</time></trkpt>
        <trkpt lat="53.36106584" lon="-1.76676161"><ele>380.33999634</ele><time>2015-06-07T10:15:03.000Z</time></trkpt>
        <trkpt lat="53.36107473" lon="-1.76678977"><ele>380.82000732</ele><time>2015-06-07T10:15:05.000Z</time></trkpt>
        <trkpt lat="53.36111345" lon="-1.76685775"><ele>381.77999878</ele><time>2015-06-07T10:15:11.000Z</time></trkpt>
        <trkpt lat="53.36120239" lon="-1.76703108"><ele>382.73999023</ele><time>2015-06-07T10:15:26.000Z</time></trkpt>
        <trkpt lat="53.36128444" lon="-1.76719981"><ele>385.14999390</ele><time>2015-06-07T10:15:41.000Z</time></trkpt>
        <trkpt lat="53.36132367" lon="-1.76728900"><ele>386.10998535</ele><time>2015-06-07T10:15:48.000Z</time></trkpt>
        <trkpt lat="53.36139567" lon="-1.76747030"><ele>388.02999878</ele><time>2015-06-07T10:16:03.000Z</time></trkpt>
        <trkpt lat="53.36143808" lon="-1.76756635"><ele>388.98999023</ele><time>2015-06-07T10:16:11.000Z</time></trkpt>
        <trkpt lat="53.36149517" lon="-1.76774187"><ele>391.86999512</ele><time>2015-06-07T10:16:26.000Z</time></trkpt>
        <trkpt lat="53.36158988" lon="-1.76784966"><ele>394.27999878</ele><time>2015-06-07T10:16:40.000Z</time></trkpt>
        <trkpt lat="53.36165970" lon="-1.76798201"><ele>396.20001221</ele><time>2015-06-07T10:16:53.000Z</time></trkpt>
        <trkpt lat="53.36170455" lon="-1.76807379"><ele>397.64001465</ele><time>2015-06-07T10:17:02.000Z</time></trkpt>
        <trkpt lat="53.36179515" lon="-1.76824797"><ele>399.57000732</ele><time>2015-06-07T10:17:18.000Z</time></trkpt>
        <trkpt lat="53.36187973" lon="-1.76841108"><ele>401.48999023</ele><time>2015-06-07T10:17:32.000Z</time></trkpt>
        <trkpt lat="53.36190378" lon="-1.76845810"><ele>401.97000122</ele><time>2015-06-07T10:17:36.000Z</time></trkpt>
        <trkpt lat="53.36195533" lon="-1.76853295"><ele>402.92999268</ele><time>2015-06-07T10:17:51.000Z</time></trkpt>
        <trkpt lat="53.36195391" lon="-1.76853019"><ele>403.41000366</ele><time>2015-06-07T10:18:02.000Z</time></trkpt>
        <trkpt lat="53.36200504" lon="-1.76862029"><ele>404.36999512</ele><time>2015-06-07T10:18:17.000Z</time></trkpt>
        <trkpt lat="53.36204410" lon="-1.76869674"><ele>404.85000610</ele><time>2015-06-07T10:18:37.000Z</time></trkpt>
        <trkpt lat="53.36205835" lon="-1.76870889"><ele>404.85000610</ele><time>2015-06-07T10:18:55.000Z</time></trkpt>
        <trkpt lat="53.36208081" lon="-1.76873420"><ele>405.32998657</ele><time>2015-06-07T10:19:11.000Z</time></trkpt>
        <trkpt lat="53.36209648" lon="-1.76871895"><ele>404.85000610</ele><time>2015-06-07T10:19:20.000Z</time></trkpt>
        <trkpt lat="53.36212087" lon="-1.76868542"><ele>405.32998657</ele><time>2015-06-07T10:19:30.000Z</time></trkpt>
        <trkpt lat="53.36213973" lon="-1.76867536"><ele>405.32998657</ele><time>2015-06-07T10:19:37.000Z</time></trkpt>
        <trkpt lat="53.36226722" lon="-1.76864997"><ele>407.26000977</ele><time>2015-06-07T10:19:50.000Z</time></trkpt>
        <trkpt lat="53.36235465" lon="-1.76863136"><ele>407.26000977</ele><time>2015-06-07T10:19:59.000Z</time></trkpt>
        <trkpt lat="53.36241935" lon="-1.76865675"><ele>408.70001221</ele><time>2015-06-07T10:20:07.000Z</time></trkpt>
        <trkpt lat="53.36243377" lon="-1.76867763"><ele>408.70001221</ele><time>2015-06-07T10:20:09.000Z</time></trkpt>
        <trkpt lat="53.36254341" lon="-1.76880511"><ele>411.10000610</ele><time>2015-06-07T10:20:24.000Z</time></trkpt>
        <trkpt lat="53.36261926" lon="-1.76885348"><ele>412.05999756</ele><time>2015-06-07T10:20:34.000Z</time></trkpt>
        <trkpt lat="53.36266059" lon="-1.76890553"><ele>413.01998901</ele><time>2015-06-07T10:20:53.000Z</time></trkpt>
        <trkpt lat="53.36268322" lon="-1.76889279"><ele>413.01998901</ele><time>2015-06-07T10:21:04.000Z</time></trkpt>
        <trkpt lat="53.36271180" lon="-1.76889866"><ele>413.50000000</ele><time>2015-06-07T10:21:17.000Z</time></trkpt>
        <trkpt lat="53.36281816" lon="-1.76896119"><ele>414.95001221</ele><time>2015-06-07T10:21:31.000Z</time></trkpt>
        <trkpt lat="53.36291078" lon="-1.76901391"><ele>416.39001465</ele><time>2015-06-07T10:21:43.000Z</time></trkpt>
        <trkpt lat="53.36297021" lon="-1.76902841"><ele>417.82998657</ele><time>2015-06-07T10:21:49.000Z</time></trkpt>
        <trkpt lat="53.36309577" lon="-1.76909287"><ele>419.75000000</ele><time>2015-06-07T10:22:03.000Z</time></trkpt>
        <trkpt lat="53.36317733" lon="-1.76911013"><ele>422.16000366</ele><time>2015-06-07T10:22:15.000Z</time></trkpt>
        <trkpt lat="53.36327582" lon="-1.76913469"><ele>425.04000854</ele><time>2015-06-07T10:22:30.000Z</time></trkpt>
        <trkpt lat="53.36336056" lon="-1.76913721"><ele>426.95999146</ele><time>2015-06-07T10:22:45.000Z</time></trkpt>
        <trkpt lat="53.36344639" lon="-1.76913570"><ele>429.85000610</ele><time>2015-06-07T10:22:59.000Z</time></trkpt>
        <trkpt lat="53.36351478" lon="-1.76914332"><ele>433.20999146</ele><time>2015-06-07T10:23:13.000Z</time></trkpt>
        <trkpt lat="53.36355284" lon="-1.76915984"><ele>434.17001343</ele><time>2015-06-07T10:23:26.000Z</time></trkpt>
        <trkpt lat="53.36364395" lon="-1.76915263"><ele>437.05999756</ele><time>2015-06-07T10:23:40.000Z</time></trkpt>
        <trkpt lat="53.36369550" lon="-1.76921826"><ele>438.98001099</ele><time>2015-06-07T10:23:52.000Z</time></trkpt>
        <trkpt lat="53.36375132" lon="-1.76930116"><ele>441.38000488</ele><time>2015-06-07T10:24:05.000Z</time></trkpt>
        <trkpt lat="53.36381469" lon="-1.76937844"><ele>443.79000854</ele><time>2015-06-07T10:24:18.000Z</time></trkpt>
        <trkpt lat="53.36389340" lon="-1.76947164"><ele>446.19000244</ele><time>2015-06-07T10:24:33.000Z</time></trkpt>
        <trkpt lat="53.36395400" lon="-1.76955655"><ele>448.58999634</ele><time>2015-06-07T10:24:46.000Z</time></trkpt>
        <trkpt lat="53.36398015" lon="-1.76959620"><ele>450.02999878</ele><time>2015-06-07T10:24:52.000Z</time></trkpt>
        <trkpt lat="53.36404947" lon="-1.76970156"><ele>452.92001343</ele><time>2015-06-07T10:25:06.000Z</time></trkpt>
        <trkpt lat="53.36412306" lon="-1.76978035"><ele>457.23999023</ele><time>2015-06-07T10:25:21.000Z</time></trkpt>
        <trkpt lat="53.36417964" lon="-1.76983081"><ele>459.17001343</ele><time>2015-06-07T10:25:33.000Z</time></trkpt>
        <trkpt lat="53.36424208" lon="-1.76988831"><ele>461.57000732</ele><time>2015-06-07T10:25:46.000Z</time></trkpt>
        <trkpt lat="53.36430335" lon="-1.76992703"><ele>463.97000122</ele><time>2015-06-07T10:25:58.000Z</time></trkpt>
        <trkpt lat="53.36436337" lon="-1.77002267"><ele>465.89999390</ele><time>2015-06-07T10:26:12.000Z</time></trkpt>
        <trkpt lat="53.36443780" lon="-1.77012895"><ele>468.29998779</ele><time>2015-06-07T10:26:26.000Z</time></trkpt>
        <trkpt lat="53.36448365" lon="-1.77025678"><ele>470.22000122</ele><time>2015-06-07T10:26:38.000Z</time></trkpt>
        <trkpt lat="53.36451793" lon="-1.77039147"><ele>472.14001465</ele><time>2015-06-07T10:26:51.000Z</time></trkpt>
        <trkpt lat="53.36452866" lon="-1.77042785"><ele>472.63000488</ele><time>2015-06-07T10:26:54.000Z</time></trkpt>
        <trkpt lat="53.36456479" lon="-1.77054352"><ele>474.07000732</ele><time>2015-06-07T10:27:03.000Z</time></trkpt>
        <trkpt lat="53.36462882" lon="-1.77074854"><ele>475.98999023</ele><time>2015-06-07T10:27:19.000Z</time></trkpt>
        <trkpt lat="53.36466311" lon="-1.77085575"><ele>476.95001221</ele><time>2015-06-07T10:27:28.000Z</time></trkpt>
        <trkpt lat="53.36469647" lon="-1.77094300"><ele>478.39001465</ele><time>2015-06-07T10:27:35.000Z</time></trkpt>
        <trkpt lat="53.36472639" lon="-1.77100411"><ele>479.35000610</ele><time>2015-06-07T10:27:40.000Z</time></trkpt>
        <trkpt lat="53.36473821" lon="-1.77102707"><ele>479.35000610</ele><time>2015-06-07T10:27:42.000Z</time></trkpt>
        <trkpt lat="53.36478179" lon="-1.77119614"><ele>481.76000977</ele><time>2015-06-07T10:27:57.000Z</time></trkpt>
        <trkpt lat="53.36483452" lon="-1.77129270"><ele>482.72000122</ele><time>2015-06-07T10:28:09.000Z</time></trkpt>
        <trkpt lat="53.36485798" lon="-1.77129856"><ele>482.72000122</ele><time>2015-06-07T10:28:22.000Z</time></trkpt>
        <trkpt lat="53.36485706" lon="-1.77130493"><ele>482.72000122</ele><time>2015-06-07T10:28:27.000Z</time></trkpt>
        <trkpt lat="53.36484659" lon="-1.77141029"><ele>483.20001221</ele><time>2015-06-07T10:28:41.000Z</time></trkpt>
        <trkpt lat="53.36488615" lon="-1.77144650"><ele>483.67999268</ele><time>2015-06-07T10:28:58.000Z</time></trkpt>
        <trkpt lat="53.36489487" lon="-1.77143209"><ele>483.20001221</ele><time>2015-06-07T10:29:16.000Z</time></trkpt>
        <trkpt lat="53.36489235" lon="-1.77143142"><ele>483.20001221</ele><time>2015-06-07T10:29:33.000Z</time></trkpt>
        <trkpt lat="53.36489252" lon="-1.77143066"><ele>482.72000122</ele><time>2015-06-07T10:29:56.000Z</time></trkpt>
        <trkpt lat="53.36489118" lon="-1.77143318"><ele>482.72000122</ele><time>2015-06-07T10:30:18.000Z</time></trkpt>
        <trkpt lat="53.36489302" lon="-1.77143653"><ele>483.20001221</ele><time>2015-06-07T10:30:38.000Z</time></trkpt>
        <trkpt lat="53.36489562" lon="-1.77143896"><ele>483.20001221</ele><time>2015-06-07T10:30:54.000Z</time></trkpt>
        <trkpt lat="53.36487852" lon="-1.77138414"><ele>482.23999023</ele><time>2015-06-07T10:31:10.000Z</time></trkpt>
        <trkpt lat="53.36487668" lon="-1.77137878"><ele>482.72000122</ele><time>2015-06-07T10:31:25.000Z</time></trkpt>
        <trkpt lat="53.36487374" lon="-1.77137442"><ele>482.72000122</ele><time>2015-06-07T10:31:40.000Z</time></trkpt>
        <trkpt lat="53.36486218" lon="-1.77139470"><ele>483.20001221</ele><time>2015-06-07T10:32:00.000Z</time></trkpt>
        <trkpt lat="53.36484432" lon="-1.77138959"><ele>482.72000122</ele><time>2015-06-07T10:32:16.000Z</time></trkpt>
        <trkpt lat="53.36484407" lon="-1.77139462"><ele>482.72000122</ele><time>2015-06-07T10:32:32.000Z</time></trkpt>
        <trkpt lat="53.36484617" lon="-1.77139906"><ele>482.72000122</ele><time>2015-06-07T10:32:54.000Z</time></trkpt>
        <trkpt lat="53.36484692" lon="-1.77140116"><ele>482.72000122</ele><time>2015-06-07T10:33:18.000Z</time></trkpt>
        <trkpt lat="53.36484868" lon="-1.77140158"><ele>482.72000122</ele><time>2015-06-07T10:33:34.000Z</time></trkpt>
        <trkpt lat="53.36485094" lon="-1.77140325"><ele>482.72000122</ele><time>2015-06-07T10:33:56.000Z</time></trkpt>
        <trkpt lat="53.36484726" lon="-1.77141616"><ele>482.72000122</ele><time>2015-06-07T10:34:11.000Z</time></trkpt>
        <trkpt lat="53.36484223" lon="-1.77146897"><ele>483.20001221</ele><time>2015-06-07T10:34:18.000Z</time></trkpt>
        <trkpt lat="53.36483535" lon="-1.77163065"><ele>482.72000122</ele><time>2015-06-07T10:34:26.000Z</time></trkpt>
        <trkpt lat="53.36480174" lon="-1.77199929"><ele>481.76000977</ele><time>2015-06-07T10:34:45.000Z</time></trkpt>
        <trkpt lat="53.36479135" lon="-1.77220523"><ele>481.27999878</ele><time>2015-06-07T10:35:00.000Z</time></trkpt>
        <trkpt lat="53.36472865" lon="-1.77251025"><ele>477.42999268</ele><time>2015-06-07T10:35:18.000Z</time></trkpt>
        <trkpt lat="53.36465891" lon="-1.77275408"><ele>475.02999878</ele><time>2015-06-07T10:35:34.000Z</time></trkpt>
        <trkpt lat="53.36462086" lon="-1.77280982"><ele>473.10998535</ele><time>2015-06-07T10:35:40.000Z</time></trkpt>
        <trkpt lat="53.36461239" lon="-1.77286313"><ele>472.63000488</ele><time>2015-06-07T10:35:43.000Z</time></trkpt>
        <trkpt lat="53.36455766" lon="-1.77303345"><ele>470.70001221</ele><time>2015-06-07T10:35:57.000Z</time></trkpt>
        <trkpt lat="53.36449429" lon="-1.77321668"><ele>468.29998779</ele><time>2015-06-07T10:36:10.000Z</time></trkpt>
        <trkpt lat="53.36441282" lon="-1.77345858"><ele>464.92999268</ele><time>2015-06-07T10:36:26.000Z</time></trkpt>
        <trkpt lat="53.36435331" lon="-1.77372085"><ele>462.04998779</ele><time>2015-06-07T10:36:43.000Z</time></trkpt>
        <trkpt lat="53.36426312" lon="-1.77395781"><ele>458.69000244</ele><time>2015-06-07T10:37:01.000Z</time></trkpt>
        <trkpt lat="53.36423613" lon="-1.77402142"><ele>457.72000122</ele><time>2015-06-07T10:37:15.000Z</time></trkpt>
        <trkpt lat="53.36418224" lon="-1.77413600"><ele>455.32000732</ele><time>2015-06-07T10:37:34.000Z</time></trkpt>
        <trkpt lat="53.36414963" lon="-1.77424313"><ele>454.35998535</ele><time>2015-06-07T10:37:43.000Z</time></trkpt>
        <trkpt lat="53.36412616" lon="-1.77437003"><ele>452.92001343</ele><time>2015-06-07T10:37:57.000Z</time></trkpt>
        <trkpt lat="53.36412499" lon="-1.77437665"><ele>451.95999146</ele><time>2015-06-07T10:38:10.000Z</time></trkpt>
        <trkpt lat="53.36410889" lon="-1.77443013"><ele>451.00000000</ele><time>2015-06-07T10:38:24.000Z</time></trkpt>
        <trkpt lat="53.36406514" lon="-1.77448872"><ele>450.02999878</ele><time>2015-06-07T10:38:37.000Z</time></trkpt>
        <trkpt lat="53.36405475" lon="-1.77451537"><ele>450.02999878</ele><time>2015-06-07T10:38:39.000Z</time></trkpt>
        <trkpt lat="53.36400714" lon="-1.77464110"><ele>447.14999390</ele><time>2015-06-07T10:38:52.000Z</time></trkpt>
        <trkpt lat="53.36397294" lon="-1.77474151"><ele>445.70999146</ele><time>2015-06-07T10:39:08.000Z</time></trkpt>
        <trkpt lat="53.36395358" lon="-1.77482567"><ele>445.23001099</ele><time>2015-06-07T10:39:14.000Z</time></trkpt>
        <trkpt lat="53.36388686" lon="-1.77495031"><ele>442.82000732</ele><time>2015-06-07T10:39:24.000Z</time></trkpt>
        <trkpt lat="53.36386615" lon="-1.77501502"><ele>442.33999634</ele><time>2015-06-07T10:39:28.000Z</time></trkpt>
        <trkpt lat="53.36379617" lon="-1.77518014"><ele>440.42001343</ele><time>2015-06-07T10:39:45.000Z</time></trkpt>
        <trkpt lat="53.36378116" lon="-1.77522406"><ele>439.94000244</ele><time>2015-06-07T10:39:48.000Z</time></trkpt>
        <trkpt lat="53.36375794" lon="-1.77528458"><ele>438.98001099</ele><time>2015-06-07T10:39:52.000Z</time></trkpt>
        <trkpt lat="53.36367907" lon="-1.77546009"><ele>436.57998657</ele><time>2015-06-07T10:40:06.000Z</time></trkpt>
        <trkpt lat="53.36360405" lon="-1.77570325"><ele>435.13000488</ele><time>2015-06-07T10:40:23.000Z</time></trkpt>
        <trkpt lat="53.36355829" lon="-1.77579017"><ele>434.17001343</ele><time>2015-06-07T10:40:30.000Z</time></trkpt>
        <trkpt lat="53.36351336" lon="-1.77593350"><ele>433.20999146</ele><time>2015-06-07T10:40:39.000Z</time></trkpt>
        <trkpt lat="53.36350305" lon="-1.77596234"><ele>433.20999146</ele><time>2015-06-07T10:40:41.000Z</time></trkpt>
        <trkpt lat="53.36346022" lon="-1.77606720"><ele>432.25000000</ele><time>2015-06-07T10:40:48.000Z</time></trkpt>
        <trkpt lat="53.36341613" lon="-1.77619058"><ele>431.76998901</ele><time>2015-06-07T10:40:56.000Z</time></trkpt>
        <trkpt lat="53.36338922" lon="-1.77624581"><ele>431.29000854</ele><time>2015-06-07T10:41:00.000Z</time></trkpt>
        <trkpt lat="53.36337858" lon="-1.77628454"><ele>431.29000854</ele><time>2015-06-07T10:41:03.000Z</time></trkpt>
        <trkpt lat="53.36333290" lon="-1.77641161"><ele>430.80999756</ele><time>2015-06-07T10:41:18.000Z</time></trkpt>
        <trkpt lat="53.36332871" lon="-1.77642376"><ele>430.80999756</ele><time>2015-06-07T10:41:26.000Z</time></trkpt>
        <trkpt lat="53.36329384" lon="-1.77653206"><ele>429.85000610</ele><time>2015-06-07T10:41:41.000Z</time></trkpt>
        <trkpt lat="53.36322343" lon="-1.77679290"><ele>428.39999390</ele><time>2015-06-07T10:41:56.000Z</time></trkpt>
        <trkpt lat="53.36315126" lon="-1.77705894"><ele>427.92001343</ele><time>2015-06-07T10:42:11.000Z</time></trkpt>
        <trkpt lat="53.36306945" lon="-1.77730923"><ele>426.48001099</ele><time>2015-06-07T10:42:27.000Z</time></trkpt>
        <trkpt lat="53.36301900" lon="-1.77749346"><ele>426.48001099</ele><time>2015-06-07T10:42:38.000Z</time></trkpt>
        <trkpt lat="53.36298270" lon="-1.77755674"><ele>426.48001099</ele><time>2015-06-07T10:42:57.000Z</time></trkpt>
        <trkpt lat="53.36295102" lon="-1.77765766"><ele>426.00000000</ele><time>2015-06-07T10:43:19.000Z</time></trkpt>
        <trkpt lat="53.36287701" lon="-1.77788833"><ele>425.04000854</ele><time>2015-06-07T10:43:32.000Z</time></trkpt>
        <trkpt lat="53.36276343" lon="-1.77820827"><ele>424.55999756</ele><time>2015-06-07T10:43:51.000Z</time></trkpt>
        <trkpt lat="53.36268380" lon="-1.77838882"><ele>424.07998657</ele><time>2015-06-07T10:44:03.000Z</time></trkpt>
        <trkpt lat="53.36265723" lon="-1.77847213"><ele>424.07998657</ele><time>2015-06-07T10:44:08.000Z</time></trkpt>
        <trkpt lat="53.36255363" lon="-1.77879165"><ele>426.00000000</ele><time>2015-06-07T10:44:27.000Z</time></trkpt>
        <trkpt lat="53.36247769" lon="-1.77905501"><ele>428.89001465</ele><time>2015-06-07T10:44:44.000Z</time></trkpt>
        <trkpt lat="53.36244810" lon="-1.77922181"><ele>429.85000610</ele><time>2015-06-07T10:44:56.000Z</time></trkpt>
        <trkpt lat="53.36240661" lon="-1.77942750"><ele>431.76998901</ele><time>2015-06-07T10:45:10.000Z</time></trkpt>
        <trkpt lat="53.36239136" lon="-1.77948911"><ele>432.25000000</ele><time>2015-06-07T10:45:14.000Z</time></trkpt>
        <trkpt lat="53.36238775" lon="-1.77952180"><ele>432.73001099</ele><time>2015-06-07T10:45:16.000Z</time></trkpt>
        <trkpt lat="53.36232984" lon="-1.77976672"><ele>434.17001343</ele><time>2015-06-07T10:45:32.000Z</time></trkpt>
        <trkpt lat="53.36231785" lon="-1.77981131"><ele>434.64999390</ele><time>2015-06-07T10:45:35.000Z</time></trkpt>
        <trkpt lat="53.36226177" lon="-1.78011113"><ele>437.05999756</ele><time>2015-06-07T10:45:53.000Z</time></trkpt>
        <trkpt lat="53.36223386" lon="-1.78029117"><ele>438.50000000</ele><time>2015-06-07T10:46:05.000Z</time></trkpt>
        <trkpt lat="53.36221961" lon="-1.78032797"><ele>438.01998901</ele><time>2015-06-07T10:46:08.000Z</time></trkpt>
        <trkpt lat="53.36216563" lon="-1.78053232"><ele>439.45999146</ele><time>2015-06-07T10:46:23.000Z</time></trkpt>
        <trkpt lat="53.36216220" lon="-1.78060222"><ele>439.94000244</ele><time>2015-06-07T10:46:27.000Z</time></trkpt>
        <trkpt lat="53.36214577" lon="-1.78066978"><ele>440.42001343</ele><time>2015-06-07T10:46:31.000Z</time></trkpt>
        <trkpt lat="53.36209640" lon="-1.78089492"><ele>441.38000488</ele><time>2015-06-07T10:46:46.000Z</time></trkpt>
        <trkpt lat="53.36207435" lon="-1.78100866"><ele>440.89999390</ele><time>2015-06-07T10:47:03.000Z</time></trkpt>
        <trkpt lat="53.36202146" lon="-1.78136020"><ele>441.38000488</ele><time>2015-06-07T10:47:21.000Z</time></trkpt>
        <trkpt lat="53.36194318" lon="-1.78165876"><ele>442.33999634</ele><time>2015-06-07T10:47:38.000Z</time></trkpt>
        <trkpt lat="53.36188476" lon="-1.78195179"><ele>443.79000854</ele><time>2015-06-07T10:47:54.000Z</time></trkpt>
        <trkpt lat="53.36181158" lon="-1.78229788"><ele>442.82000732</ele><time>2015-06-07T10:48:12.000Z</time></trkpt>
        <trkpt lat="53.36172491" lon="-1.78251573"><ele>440.89999390</ele><time>2015-06-07T10:48:28.000Z</time></trkpt>
        <trkpt lat="53.36169792" lon="-1.78255973"><ele>440.42001343</ele><time>2015-06-07T10:48:32.000Z</time></trkpt>
        <trkpt lat="53.36165342" lon="-1.78266250"><ele>440.42001343</ele><time>2015-06-07T10:48:39.000Z</time></trkpt>
        <trkpt lat="53.36149785" lon="-1.78292560"><ele>439.45999146</ele><time>2015-06-07T10:48:57.000Z</time></trkpt>
        <trkpt lat="53.36142912" lon="-1.78302451"><ele>438.98001099</ele><time>2015-06-07T10:49:13.000Z</time></trkpt>
        <trkpt lat="53.36133071" lon="-1.78314219"><ele>435.60998535</ele><time>2015-06-07T10:49:29.000Z</time></trkpt>
        <trkpt lat="53.36129677" lon="-1.78317086"><ele>434.17001343</ele><time>2015-06-07T10:49:47.000Z</time></trkpt>
        <trkpt lat="53.36125209" lon="-1.78320388"><ele>432.25000000</ele><time>2015-06-07T10:49:59.000Z</time></trkpt>
        <trkpt lat="53.36124086" lon="-1.78321545"><ele>431.76998901</ele><time>2015-06-07T10:50:11.000Z</time></trkpt>
        <trkpt lat="53.36119585" lon="-1.78327572"><ele>430.32998657</ele><time>2015-06-07T10:50:21.000Z</time></trkpt>
        <trkpt lat="53.36112670" lon="-1.78340614"><ele>426.00000000</ele><time>2015-06-07T10:50:37.000Z</time></trkpt>
        <trkpt lat="53.36107884" lon="-1.78346724"><ele>423.11999512</ele><time>2015-06-07T10:50:49.000Z</time></trkpt>
        <trkpt lat="53.36104900" lon="-1.78349582"><ele>420.23001099</ele><time>2015-06-07T10:50:59.000Z</time></trkpt>
        <trkpt lat="53.36100130" lon="-1.78356808"><ele>417.35000610</ele><time>2015-06-07T10:51:12.000Z</time></trkpt>
        <trkpt lat="53.36094020" lon="-1.78363304"><ele>414.95001221</ele><time>2015-06-07T10:51:25.000Z</time></trkpt>
        <trkpt lat="53.36090826" lon="-1.78366866"><ele>412.54000854</ele><time>2015-06-07T10:51:38.000Z</time></trkpt>
        <trkpt lat="53.36088764" lon="-1.78369473"><ele>411.10000610</ele><time>2015-06-07T10:52:00.000Z</time></trkpt>
        <trkpt lat="53.36081523" lon="-1.78381392"><ele>408.22000122</ele><time>2015-06-07T10:52:14.000Z</time></trkpt>
        <trkpt lat="53.36074683" lon="-1.78388910"><ele>406.29000854</ele><time>2015-06-07T10:52:25.000Z</time></trkpt>
        <trkpt lat="53.36065228" lon="-1.78404291"><ele>404.85000610</ele><time>2015-06-07T10:52:41.000Z</time></trkpt>
        <trkpt lat="53.36063242" lon="-1.78405951"><ele>403.41000366</ele><time>2015-06-07T10:52:54.000Z</time></trkpt>
        <trkpt lat="53.36063066" lon="-1.78406202"><ele>401.48999023</ele><time>2015-06-07T10:53:16.000Z</time></trkpt>
        <trkpt lat="53.36063401" lon="-1.78406487"><ele>401.97000122</ele><time>2015-06-07T10:53:41.000Z</time></trkpt>
        <trkpt lat="53.36063066" lon="-1.78405875"><ele>401.97000122</ele><time>2015-06-07T10:53:57.000Z</time></trkpt>
        <trkpt lat="53.36062739" lon="-1.78405138"><ele>402.45001221</ele><time>2015-06-07T10:54:24.000Z</time></trkpt>
        <trkpt lat="53.36063250" lon="-1.78404777"><ele>401.48999023</ele><time>2015-06-07T10:54:57.000Z</time></trkpt>
        <trkpt lat="53.36063476" lon="-1.78405548"><ele>401.48999023</ele><time>2015-06-07T10:55:11.000Z</time></trkpt>
        <trkpt lat="53.36062814" lon="-1.78407460"><ele>401.97000122</ele><time>2015-06-07T10:55:13.000Z</time></trkpt>
        <trkpt lat="53.36060467" lon="-1.78429361"><ele>404.36999512</ele><time>2015-06-07T10:55:25.000Z</time></trkpt>
        <trkpt lat="53.36058464" lon="-1.78437676"><ele>404.36999512</ele><time>2015-06-07T10:55:40.000Z</time></trkpt>
        <trkpt lat="53.36053535" lon="-1.78457173"><ele>405.32998657</ele><time>2015-06-07T10:55:51.000Z</time></trkpt>
        <trkpt lat="53.36051557" lon="-1.78463962"><ele>404.85000610</ele><time>2015-06-07T10:55:55.000Z</time></trkpt>
        <trkpt lat="53.36046109" lon="-1.78479888"><ele>403.89001465</ele><time>2015-06-07T10:56:10.000Z</time></trkpt>
        <trkpt lat="53.36045908" lon="-1.78481924"><ele>402.92999268</ele><time>2015-06-07T10:56:30.000Z</time></trkpt>
        <trkpt lat="53.36044793" lon="-1.78487180"><ele>402.92999268</ele><time>2015-06-07T10:56:41.000Z</time></trkpt>
        <trkpt lat="53.36038783" lon="-1.78509501"><ele>403.89001465</ele><time>2015-06-07T10:56:53.000Z</time></trkpt>
        <trkpt lat="53.36034961" lon="-1.78528888"><ele>401.01000977</ele><time>2015-06-07T10:57:08.000Z</time></trkpt>
        <trkpt lat="53.36034844" lon="-1.78529383"><ele>401.48999023</ele><time>2015-06-07T10:57:21.000Z</time></trkpt>
        <trkpt lat="53.36035137" lon="-1.78529316"><ele>401.48999023</ele><time>2015-06-07T10:57:34.000Z</time></trkpt>
        <trkpt lat="53.36033804" lon="-1.78530045"><ele>401.48999023</ele><time>2015-06-07T10:57:45.000Z</time></trkpt>
        <trkpt lat="53.36028792" lon="-1.78550941"><ele>404.36999512</ele><time>2015-06-07T10:57:58.000Z</time></trkpt>
        <trkpt lat="53.36028281" lon="-1.78553900"><ele>404.36999512</ele><time>2015-06-07T10:58:00.000Z</time></trkpt>
        <trkpt lat="53.36027568" lon="-1.78558384"><ele>404.85000610</ele><time>2015-06-07T10:58:03.000Z</time></trkpt>
        <trkpt lat="53.36026437" lon="-1.78560756"><ele>405.32998657</ele><time>2015-06-07T10:58:05.000Z</time></trkpt>
        <trkpt lat="53.36025448" lon="-1.78585147"><ele>407.26000977</ele><time>2015-06-07T10:58:20.000Z</time></trkpt>
        <trkpt lat="53.36024811" lon="-1.78592289"><ele>407.26000977</ele><time>2015-06-07T10:58:35.000Z</time></trkpt>
        <trkpt lat="53.36024098" lon="-1.78605172"><ele>407.26000977</ele><time>2015-06-07T10:58:52.000Z</time></trkpt>
        <trkpt lat="53.36021114" lon="-1.78633084"><ele>408.70001221</ele><time>2015-06-07T10:59:07.000Z</time></trkpt>
        <trkpt lat="53.36019848" lon="-1.78644416"><ele>409.17999268</ele><time>2015-06-07T10:59:13.000Z</time></trkpt>
        <trkpt lat="53.36016940" lon="-1.78662722"><ele>410.14001465</ele><time>2015-06-07T10:59:23.000Z</time></trkpt>
        <trkpt lat="53.36011073" lon="-1.78692243"><ele>411.10000610</ele><time>2015-06-07T10:59:40.000Z</time></trkpt>
        <trkpt lat="53.36000461" lon="-1.78727648"><ele>411.57998657</ele><time>2015-06-07T11:00:01.000Z</time></trkpt>
        <trkpt lat="53.35999003" lon="-1.78732501"><ele>411.57998657</ele><time>2015-06-07T11:00:04.000Z</time></trkpt>
        <trkpt lat="53.35988207" lon="-1.78759273"><ele>412.05999756</ele><time>2015-06-07T11:00:21.000Z</time></trkpt>
        <trkpt lat="53.35983630" lon="-1.78772449"><ele>412.05999756</ele><time>2015-06-07T11:00:29.000Z</time></trkpt>
        <trkpt lat="53.35980705" lon="-1.78778912"><ele>411.57998657</ele><time>2015-06-07T11:00:33.000Z</time></trkpt>
        <trkpt lat="53.35977403" lon="-1.78796874"><ele>412.05999756</ele><time>2015-06-07T11:00:43.000Z</time></trkpt>
        <trkpt lat="53.35966481" lon="-1.78831777"><ele>412.54000854</ele><time>2015-06-07T11:01:03.000Z</time></trkpt>
        <trkpt lat="53.35957001" lon="-1.78856319"><ele>412.54000854</ele><time>2015-06-07T11:01:18.000Z</time></trkpt>
        <trkpt lat="53.35955844" lon="-1.78861281"><ele>413.01998901</ele><time>2015-06-07T11:01:21.000Z</time></trkpt>
        <trkpt lat="53.35952525" lon="-1.78871406"><ele>413.01998901</ele><time>2015-06-07T11:01:27.000Z</time></trkpt>
        <trkpt lat="53.35943514" lon="-1.78897524"><ele>414.95001221</ele><time>2015-06-07T11:01:43.000Z</time></trkpt>
        <trkpt lat="53.35937656" lon="-1.78915193"><ele>415.42999268</ele><time>2015-06-07T11:01:54.000Z</time></trkpt>
        <trkpt lat="53.35929274" lon="-1.78935746"><ele>416.86999512</ele><time>2015-06-07T11:02:10.000Z</time></trkpt>
        <trkpt lat="53.35928972" lon="-1.78937389"><ele>416.86999512</ele><time>2015-06-07T11:02:12.000Z</time></trkpt>
        <trkpt lat="53.35925510" lon="-1.78954789"><ele>418.30999756</ele><time>2015-06-07T11:02:23.000Z</time></trkpt>
        <trkpt lat="53.35916575" lon="-1.78976121"><ele>419.75000000</ele><time>2015-06-07T11:02:39.000Z</time></trkpt>
        <trkpt lat="53.35911563" lon="-1.78992768"><ele>421.19000244</ele><time>2015-06-07T11:02:50.000Z</time></trkpt>
        <trkpt lat="53.35905360" lon="-1.79011459"><ele>423.60000610</ele><time>2015-06-07T11:03:06.000Z</time></trkpt>
        <trkpt lat="53.35905000" lon="-1.79012650"><ele>423.11999512</ele><time>2015-06-07T11:03:19.000Z</time></trkpt>
        <trkpt lat="53.35904178" lon="-1.79016891"><ele>423.60000610</ele><time>2015-06-07T11:03:24.000Z</time></trkpt>
        <trkpt lat="53.35899769" lon="-1.79027335"><ele>424.07998657</ele><time>2015-06-07T11:03:31.000Z</time></trkpt>
        <trkpt lat="53.35890289" lon="-1.79054584"><ele>425.04000854</ele><time>2015-06-07T11:03:48.000Z</time></trkpt>
        <trkpt lat="53.35886040" lon="-1.79065322"><ele>425.51998901</ele><time>2015-06-07T11:03:55.000Z</time></trkpt>
        <trkpt lat="53.35878387" lon="-1.79095538"><ele>427.44000244</ele><time>2015-06-07T11:04:13.000Z</time></trkpt>
        <trkpt lat="53.35869879" lon="-1.79116133"><ele>429.36999512</ele><time>2015-06-07T11:04:27.000Z</time></trkpt>
        <trkpt lat="53.35861246" lon="-1.79143005"><ele>429.36999512</ele><time>2015-06-07T11:04:44.000Z</time></trkpt>
        <trkpt lat="53.35859050" lon="-1.79155603"><ele>430.80999756</ele><time>2015-06-07T11:04:51.000Z</time></trkpt>
        <trkpt lat="53.35855806" lon="-1.79160054"><ele>431.29000854</ele><time>2015-06-07T11:04:55.000Z</time></trkpt>
        <trkpt lat="53.35846703" lon="-1.79183448"><ele>430.80999756</ele><time>2015-06-07T11:05:10.000Z</time></trkpt>
        <trkpt lat="53.35842370" lon="-1.79202215"><ele>431.29000854</ele><time>2015-06-07T11:05:21.000Z</time></trkpt>
        <trkpt lat="53.35833376" lon="-1.79236053"><ele>431.76998901</ele><time>2015-06-07T11:05:40.000Z</time></trkpt>
        <trkpt lat="53.35829060" lon="-1.79252607"><ele>431.76998901</ele><time>2015-06-07T11:05:49.000Z</time></trkpt>
        <trkpt lat="53.35826972" lon="-1.79265280"><ele>432.25000000</ele><time>2015-06-07T11:06:05.000Z</time></trkpt>
        <trkpt lat="53.35823377" lon="-1.79276420"><ele>432.25000000</ele><time>2015-06-07T11:06:18.000Z</time></trkpt>
        <trkpt lat="53.35822237" lon="-1.79279999"><ele>430.80999756</ele><time>2015-06-07T11:06:30.000Z</time></trkpt>
        <trkpt lat="53.35819378" lon="-1.79284760"><ele>429.85000610</ele><time>2015-06-07T11:06:44.000Z</time></trkpt>
        <trkpt lat="53.35818683" lon="-1.79292236"><ele>430.80999756</ele><time>2015-06-07T11:06:56.000Z</time></trkpt>
        <trkpt lat="53.35810460" lon="-1.79324725"><ele>428.89001465</ele><time>2015-06-07T11:07:15.000Z</time></trkpt>
        <trkpt lat="53.35808566" lon="-1.79335454"><ele>428.89001465</ele><time>2015-06-07T11:07:21.000Z</time></trkpt>
        <trkpt lat="53.35802958" lon="-1.79368654"><ele>427.44000244</ele><time>2015-06-07T11:07:38.000Z</time></trkpt>
        <trkpt lat="53.35801852" lon="-1.79374086"><ele>426.95999146</ele><time>2015-06-07T11:07:41.000Z</time></trkpt>
        <trkpt lat="53.35798524" lon="-1.79388419"><ele>426.48001099</ele><time>2015-06-07T11:07:51.000Z</time></trkpt>
        <trkpt lat="53.35792246" lon="-1.79417261"><ele>424.07998657</ele><time>2015-06-07T11:08:07.000Z</time></trkpt>
        <trkpt lat="53.35791592" lon="-1.79418703"><ele>423.60000610</ele><time>2015-06-07T11:08:08.000Z</time></trkpt>
        <trkpt lat="53.35789992" lon="-1.79431426"><ele>423.11999512</ele><time>2015-06-07T11:08:15.000Z</time></trkpt>
        <trkpt lat="53.35787678" lon="-1.79451828"><ele>421.67999268</ele><time>2015-06-07T11:08:27.000Z</time></trkpt>
        <trkpt lat="53.35782951" lon="-1.79473964"><ele>419.75000000</ele><time>2015-06-07T11:08:40.000Z</time></trkpt>
        <trkpt lat="53.35780998" lon="-1.79478139"><ele>419.26998901</ele><time>2015-06-07T11:08:43.000Z</time></trkpt>
        <trkpt lat="53.35780872" lon="-1.79482514"><ele>418.79000854</ele><time>2015-06-07T11:08:46.000Z</time></trkpt>
        <trkpt lat="53.35777746" lon="-1.79497174"><ele>416.39001465</ele><time>2015-06-07T11:08:56.000Z</time></trkpt>
        <trkpt lat="53.35773990" lon="-1.79517810"><ele>413.50000000</ele><time>2015-06-07T11:09:09.000Z</time></trkpt>
        <trkpt lat="53.35767386" lon="-1.79537608"><ele>411.10000610</ele><time>2015-06-07T11:09:23.000Z</time></trkpt>
        <trkpt lat="53.35758853" lon="-1.79566719"><ele>409.17999268</ele><time>2015-06-07T11:09:40.000Z</time></trkpt>
        <trkpt lat="53.35754402" lon="-1.79595393"><ele>407.26000977</ele><time>2015-06-07T11:09:56.000Z</time></trkpt>
        <trkpt lat="53.35751468" lon="-1.79613221"><ele>405.80999756</ele><time>2015-06-07T11:10:06.000Z</time></trkpt>
        <trkpt lat="53.35752038" lon="-1.79618686"><ele>405.32998657</ele><time>2015-06-07T11:10:09.000Z</time></trkpt>
        <trkpt lat="53.35749608" lon="-1.79643279"><ele>403.89001465</ele><time>2015-06-07T11:10:23.000Z</time></trkpt>
        <trkpt lat="53.35748686" lon="-1.79646330"><ele>403.89001465</ele><time>2015-06-07T11:10:25.000Z</time></trkpt>
        <trkpt lat="53.35747152" lon="-1.79662733"><ele>402.45001221</ele><time>2015-06-07T11:10:34.000Z</time></trkpt>
        <trkpt lat="53.35742491" lon="-1.79690335"><ele>400.04998779</ele><time>2015-06-07T11:10:50.000Z</time></trkpt>
        <trkpt lat="53.35740915" lon="-1.79695599"><ele>399.07998657</ele><time>2015-06-07T11:10:53.000Z</time></trkpt>
        <trkpt lat="53.35737596" lon="-1.79720962"><ele>399.07998657</ele><time>2015-06-07T11:11:10.000Z</time></trkpt>
        <trkpt lat="53.35737739" lon="-1.79722530"><ele>399.07998657</ele><time>2015-06-07T11:11:28.000Z</time></trkpt>
        <trkpt lat="53.35736121" lon="-1.79733418"><ele>398.60000610</ele><time>2015-06-07T11:11:41.000Z</time></trkpt>
        <trkpt lat="53.35735333" lon="-1.79737148"><ele>398.60000610</ele><time>2015-06-07T11:11:45.000Z</time></trkpt>
        <trkpt lat="53.35735367" lon="-1.79740417"><ele>399.07998657</ele><time>2015-06-07T11:11:47.000Z</time></trkpt>
        <trkpt lat="53.35733690" lon="-1.79759075"><ele>399.07998657</ele><time>2015-06-07T11:11:58.000Z</time></trkpt>
        <trkpt lat="53.35733715" lon="-1.79770315"><ele>400.04998779</ele><time>2015-06-07T11:12:11.000Z</time></trkpt>
        <trkpt lat="53.35729139" lon="-1.79800222"><ele>400.52999878</ele><time>2015-06-07T11:12:28.000Z</time></trkpt>
        <trkpt lat="53.35727463" lon="-1.79821813"><ele>401.97000122</ele><time>2015-06-07T11:12:42.000Z</time></trkpt>
        <trkpt lat="53.35722651" lon="-1.79847009"><ele>401.48999023</ele><time>2015-06-07T11:12:56.000Z</time></trkpt>
        <trkpt lat="53.35719726" lon="-1.79879867"><ele>402.92999268</ele><time>2015-06-07T11:13:13.000Z</time></trkpt>
        <trkpt lat="53.35719642" lon="-1.79886337"><ele>402.92999268</ele><time>2015-06-07T11:13:25.000Z</time></trkpt>
        <trkpt lat="53.35719718" lon="-1.79886773"><ele>401.97000122</ele><time>2015-06-07T11:13:44.000Z</time></trkpt>
        <trkpt lat="53.35719651" lon="-1.79897443"><ele>402.92999268</ele><time>2015-06-07T11:13:52.000Z</time></trkpt>
        <trkpt lat="53.35717966" lon="-1.79908147"><ele>402.92999268</ele><time>2015-06-07T11:13:58.000Z</time></trkpt>
        <trkpt lat="53.35714513" lon="-1.79930418"><ele>402.92999268</ele><time>2015-06-07T11:14:09.000Z</time></trkpt>
        <trkpt lat="53.35710087" lon="-1.79964348"><ele>403.41000366</ele><time>2015-06-07T11:14:26.000Z</time></trkpt>
        <trkpt lat="53.35704211" lon="-1.79994883"><ele>404.36999512</ele><time>2015-06-07T11:14:42.000Z</time></trkpt>
        <trkpt lat="53.35697120" lon="-1.80031210"><ele>404.85000610</ele><time>2015-06-07T11:15:01.000Z</time></trkpt>
        <trkpt lat="53.35691202" lon="-1.80065107"><ele>405.80999756</ele><time>2015-06-07T11:15:18.000Z</time></trkpt>
        <trkpt lat="53.35684597" lon="-1.80096405"><ele>406.29000854</ele><time>2015-06-07T11:15:34.000Z</time></trkpt>
        <trkpt lat="53.35678102" lon="-1.80129404"><ele>407.73999023</ele><time>2015-06-07T11:15:52.000Z</time></trkpt>
        <trkpt lat="53.35671606" lon="-1.80161641"><ele>408.70001221</ele><time>2015-06-07T11:16:10.000Z</time></trkpt>
        <trkpt lat="53.35670348" lon="-1.80170056"><ele>409.17999268</ele><time>2015-06-07T11:16:23.000Z</time></trkpt>
        <trkpt lat="53.35670281" lon="-1.80170123"><ele>409.17999268</ele><time>2015-06-07T11:16:24.000Z</time></trkpt>
        <trkpt lat="53.35668680" lon="-1.80177382"><ele>409.17999268</ele><time>2015-06-07T11:16:36.000Z</time></trkpt>
        <trkpt lat="53.35668496" lon="-1.80190274"><ele>410.14001465</ele><time>2015-06-07T11:16:46.000Z</time></trkpt>
        <trkpt lat="53.35666819" lon="-1.80202796"><ele>410.61999512</ele><time>2015-06-07T11:16:53.000Z</time></trkpt>
        <trkpt lat="53.35660039" lon="-1.80221513"><ele>411.10000610</ele><time>2015-06-07T11:17:05.000Z</time></trkpt>
        <trkpt lat="53.35655211" lon="-1.80233943"><ele>412.05999756</ele><time>2015-06-07T11:17:14.000Z</time></trkpt>
        <trkpt lat="53.35649754" lon="-1.80248394"><ele>413.50000000</ele><time>2015-06-07T11:17:25.000Z</time></trkpt>
        <trkpt lat="53.35644046" lon="-1.80265820"><ele>414.47000122</ele><time>2015-06-07T11:17:36.000Z</time></trkpt>
        <trkpt lat="53.35635672" lon="-1.80289649"><ele>415.91000366</ele><time>2015-06-07T11:17:52.000Z</time></trkpt>
        <trkpt lat="53.35635119" lon="-1.80292700"><ele>415.91000366</ele><time>2015-06-07T11:17:54.000Z</time></trkpt>
        <trkpt lat="53.35626251" lon="-1.80315960"><ele>417.35000610</ele><time>2015-06-07T11:18:10.000Z</time></trkpt>
        <trkpt lat="53.35620342" lon="-1.80331894"><ele>418.30999756</ele><time>2015-06-07T11:18:21.000Z</time></trkpt>
        <trkpt lat="53.35618716" lon="-1.80334350"><ele>418.30999756</ele><time>2015-06-07T11:18:23.000Z</time></trkpt>
        <trkpt lat="53.35609638" lon="-1.80353846"><ele>420.23001099</ele><time>2015-06-07T11:18:37.000Z</time></trkpt>
        <trkpt lat="53.35603092" lon="-1.80371264"><ele>422.16000366</ele><time>2015-06-07T11:18:49.000Z</time></trkpt>
        <trkpt lat="53.35593176" lon="-1.80395127"><ele>424.07998657</ele><time>2015-06-07T11:19:05.000Z</time></trkpt>
        <trkpt lat="53.35581961" lon="-1.80422134"><ele>426.00000000</ele><time>2015-06-07T11:19:22.000Z</time></trkpt>
        <trkpt lat="53.35570972" lon="-1.80449945"><ele>427.92001343</ele><time>2015-06-07T11:19:40.000Z</time></trkpt>
        <trkpt lat="53.35561526" lon="-1.80458863"><ele>428.39999390</ele><time>2015-06-07T11:19:55.000Z</time></trkpt>
        <trkpt lat="53.35549054" lon="-1.80476507"><ele>429.36999512</ele><time>2015-06-07T11:20:10.000Z</time></trkpt>
        <trkpt lat="53.35537990" lon="-1.80497739"><ele>431.29000854</ele><time>2015-06-07T11:20:26.000Z</time></trkpt>
        <trkpt lat="53.35524076" lon="-1.80520655"><ele>433.69000244</ele><time>2015-06-07T11:20:44.000Z</time></trkpt>
        <trkpt lat="53.35519969" lon="-1.80526514"><ele>433.69000244</ele><time>2015-06-07T11:20:49.000Z</time></trkpt>
        <trkpt lat="53.35512483" lon="-1.80541953"><ele>434.64999390</ele><time>2015-06-07T11:21:04.000Z</time></trkpt>
        <trkpt lat="53.35512685" lon="-1.80544845"><ele>434.17001343</ele><time>2015-06-07T11:21:17.000Z</time></trkpt>
        <trkpt lat="53.35512584" lon="-1.80544719"><ele>433.69000244</ele><time>2015-06-07T11:21:49.000Z</time></trkpt>
        <trkpt lat="53.35512735" lon="-1.80545012"><ele>433.69000244</ele><time>2015-06-07T11:22:14.000Z</time></trkpt>
        <trkpt lat="53.35512810" lon="-1.80545398"><ele>434.17001343</ele><time>2015-06-07T11:22:51.000Z</time></trkpt>
        <trkpt lat="53.35512291" lon="-1.80544887"><ele>434.17001343</ele><time>2015-06-07T11:23:37.000Z</time></trkpt>
        <trkpt lat="53.35513246" lon="-1.80545733"><ele>435.13000488</ele><time>2015-06-07T11:24:12.000Z</time></trkpt>
        <trkpt lat="53.35513682" lon="-1.80546437"><ele>436.10000610</ele><time>2015-06-07T11:24:41.000Z</time></trkpt>
        <trkpt lat="53.35513707" lon="-1.80546823"><ele>436.57998657</ele><time>2015-06-07T11:25:14.000Z</time></trkpt>
        <trkpt lat="53.35513397" lon="-1.80546580"><ele>436.10000610</ele><time>2015-06-07T11:25:37.000Z</time></trkpt>
        <trkpt lat="53.35512701" lon="-1.80545960"><ele>435.60998535</ele><time>2015-06-07T11:26:11.000Z</time></trkpt>
        <trkpt lat="53.35512525" lon="-1.80545800"><ele>435.13000488</ele><time>2015-06-07T11:26:33.000Z</time></trkpt>
        <trkpt lat="53.35512416" lon="-1.80545214"><ele>434.64999390</ele><time>2015-06-07T11:26:56.000Z</time></trkpt>
        <trkpt lat="53.35512425" lon="-1.80544870"><ele>434.64999390</ele><time>2015-06-07T11:27:22.000Z</time></trkpt>
        <trkpt lat="53.35512215" lon="-1.80545029"><ele>434.17001343</ele><time>2015-06-07T11:27:43.000Z</time></trkpt>
        <trkpt lat="53.35512098" lon="-1.80544836"><ele>434.17001343</ele><time>2015-06-07T11:28:12.000Z</time></trkpt>
        <trkpt lat="53.35508376" lon="-1.80546789"><ele>435.13000488</ele><time>2015-06-07T11:28:26.000Z</time></trkpt>
        <trkpt lat="53.35504563" lon="-1.80550352"><ele>435.60998535</ele><time>2015-06-07T11:28:31.000Z</time></trkpt>
        <trkpt lat="53.35494915" lon="-1.80558993"><ele>437.05999756</ele><time>2015-06-07T11:28:43.000Z</time></trkpt>
        <trkpt lat="53.35482141" lon="-1.80564542"><ele>439.45999146</ele><time>2015-06-07T11:28:58.000Z</time></trkpt>
        <trkpt lat="53.35475796" lon="-1.80568012"><ele>439.94000244</ele><time>2015-06-07T11:29:05.000Z</time></trkpt>
        <trkpt lat="53.35471982" lon="-1.80571013"><ele>440.42001343</ele><time>2015-06-07T11:29:09.000Z</time></trkpt>
        <trkpt lat="53.35470079" lon="-1.80573327"><ele>440.42001343</ele><time>2015-06-07T11:29:11.000Z</time></trkpt>
        <trkpt lat="53.35468428" lon="-1.80574785"><ele>440.89999390</ele><time>2015-06-07T11:29:13.000Z</time></trkpt>
        <trkpt lat="53.35466878" lon="-1.80576897"><ele>440.89999390</ele><time>2015-06-07T11:29:15.000Z</time></trkpt>
        <trkpt lat="53.35464472" lon="-1.80578666"><ele>441.38000488</ele><time>2015-06-07T11:29:18.000Z</time></trkpt>
        <trkpt lat="53.35459870" lon="-1.80584491"><ele>441.85998535</ele><time>2015-06-07T11:29:24.000Z</time></trkpt>
        <trkpt lat="53.35453332" lon="-1.80592521"><ele>442.33999634</ele><time>2015-06-07T11:29:32.000Z</time></trkpt>
        <trkpt lat="53.35450223" lon="-1.80596352"><ele>442.82000732</ele><time>2015-06-07T11:29:36.000Z</time></trkpt>
        <trkpt lat="53.35433082" lon="-1.80612344"><ele>444.26998901</ele><time>2015-06-07T11:29:53.000Z</time></trkpt>
        <trkpt lat="53.35422521" lon="-1.80622294"><ele>446.19000244</ele><time>2015-06-07T11:30:06.000Z</time></trkpt>
        <trkpt lat="53.35408003" lon="-1.80635646"><ele>448.58999634</ele><time>2015-06-07T11:30:23.000Z</time></trkpt>
        <trkpt lat="53.35394198" lon="-1.80647154"><ele>450.51998901</ele><time>2015-06-07T11:30:38.000Z</time></trkpt>
        <trkpt lat="53.35379496" lon="-1.80658462"><ele>452.44000244</ele><time>2015-06-07T11:30:53.000Z</time></trkpt>
        <trkpt lat="53.35364786" lon="-1.80669559"><ele>453.88000488</ele><time>2015-06-07T11:31:08.000Z</time></trkpt>
        <trkpt lat="53.35349699" lon="-1.80680430"><ele>457.23999023</ele><time>2015-06-07T11:31:24.000Z</time></trkpt>
        <trkpt lat="53.35337654" lon="-1.80690698"><ele>459.64999390</ele><time>2015-06-07T11:31:39.000Z</time></trkpt>
        <trkpt lat="53.35327302" lon="-1.80699181"><ele>461.08999634</ele><time>2015-06-07T11:31:52.000Z</time></trkpt>
        <trkpt lat="53.35327797" lon="-1.80699340"><ele>461.57000732</ele><time>2015-06-07T11:32:11.000Z</time></trkpt>
        <trkpt lat="53.35326657" lon="-1.80697739"><ele>461.57000732</ele><time>2015-06-07T11:32:29.000Z</time></trkpt>
        <trkpt lat="53.35321234" lon="-1.80703003"><ele>463.48999023</ele><time>2015-06-07T11:32:46.000Z</time></trkpt>
        <trkpt lat="53.35315190" lon="-1.80707705"><ele>464.45001221</ele><time>2015-06-07T11:32:52.000Z</time></trkpt>
        <trkpt lat="53.35313329" lon="-1.80708627"><ele>464.92999268</ele><time>2015-06-07T11:32:54.000Z</time></trkpt>
        <trkpt lat="53.35311921" lon="-1.80709625"><ele>465.42001343</ele><time>2015-06-07T11:32:56.000Z</time></trkpt>
        <trkpt lat="53.35296256" lon="-1.80720789"><ele>467.82000732</ele><time>2015-06-07T11:33:13.000Z</time></trkpt>
        <trkpt lat="53.35284404" lon="-1.80731468"><ele>469.73999023</ele><time>2015-06-07T11:33:27.000Z</time></trkpt>
        <trkpt lat="53.35282601" lon="-1.80732843"><ele>470.22000122</ele><time>2015-06-07T11:33:29.000Z</time></trkpt>
        <trkpt lat="53.35270540" lon="-1.80747720"><ele>472.63000488</ele><time>2015-06-07T11:33:44.000Z</time></trkpt>
        <trkpt lat="53.35263021" lon="-1.80755231"><ele>473.58999634</ele><time>2015-06-07T11:33:53.000Z</time></trkpt>
        <trkpt lat="53.35258403" lon="-1.80757971"><ele>474.07000732</ele><time>2015-06-07T11:33:58.000Z</time></trkpt>
        <trkpt lat="53.35242754" lon="-1.80773352"><ele>475.98999023</ele><time>2015-06-07T11:34:15.000Z</time></trkpt>
        <trkpt lat="53.35231036" lon="-1.80783729"><ele>478.86999512</ele><time>2015-06-07T11:34:31.000Z</time></trkpt>
        <trkpt lat="53.35224783" lon="-1.80794835"><ele>481.76000977</ele><time>2015-06-07T11:34:46.000Z</time></trkpt>
        <trkpt lat="53.35216133" lon="-1.80801943"><ele>484.64001465</ele><time>2015-06-07T11:35:00.000Z</time></trkpt>
        <trkpt lat="53.35207374" lon="-1.80812655"><ele>487.52999878</ele><time>2015-06-07T11:35:15.000Z</time></trkpt>
        <trkpt lat="53.35199403" lon="-1.80820450"><ele>489.92999268</ele><time>2015-06-07T11:35:29.000Z</time></trkpt>
        <trkpt lat="53.35189654" lon="-1.80831338"><ele>491.85000610</ele><time>2015-06-07T11:35:43.000Z</time></trkpt>
        <trkpt lat="53.35174064" lon="-1.80832369"><ele>492.80999756</ele><time>2015-06-07T11:35:58.000Z</time></trkpt>
        <trkpt lat="53.35156026" lon="-1.80838178"><ele>494.73999023</ele><time>2015-06-07T11:36:16.000Z</time></trkpt>
        <trkpt lat="53.35136849" lon="-1.80844766"><ele>495.70001221</ele><time>2015-06-07T11:36:33.000Z</time></trkpt>
        <trkpt lat="53.35111166" lon="-1.80856643"><ele>497.61999512</ele><time>2015-06-07T11:36:54.000Z</time></trkpt>
        <trkpt lat="53.35099951" lon="-1.80861262"><ele>499.05999756</ele><time>2015-06-07T11:37:06.000Z</time></trkpt>
        <trkpt lat="53.35081017" lon="-1.80867758"><ele>500.98001099</ele><time>2015-06-07T11:37:23.000Z</time></trkpt>
        <trkpt lat="53.35063532" lon="-1.80880532"><ele>505.30999756</ele><time>2015-06-07T11:37:42.000Z</time></trkpt>
        <trkpt lat="53.35061688" lon="-1.80882577"><ele>505.79000854</ele><time>2015-06-07T11:37:44.000Z</time></trkpt>
        <trkpt lat="53.35059634" lon="-1.80883055"><ele>506.26998901</ele><time>2015-06-07T11:37:46.000Z</time></trkpt>
        <trkpt lat="53.35044581" lon="-1.80889023"><ele>509.64001465</ele><time>2015-06-07T11:38:02.000Z</time></trkpt>
        <trkpt lat="53.35027691" lon="-1.80897010"><ele>510.60000610</ele><time>2015-06-07T11:38:18.000Z</time></trkpt>
        <trkpt lat="53.35008480" lon="-1.80906231"><ele>512.03997803</ele><time>2015-06-07T11:38:36.000Z</time></trkpt>
        <trkpt lat="53.34988145" lon="-1.80913984"><ele>513.47998047</ele><time>2015-06-07T11:38:54.000Z</time></trkpt>
        <trkpt lat="53.34985564" lon="-1.80916222"><ele>514.44000244</ele><time>2015-06-07T11:38:57.000Z</time></trkpt>
        <trkpt lat="53.34966612" lon="-1.80924796"><ele>516.36999512</ele><time>2015-06-07T11:39:14.000Z</time></trkpt>
        <trkpt lat="53.34952304" lon="-1.80935358"><ele>518.28997803</ele><time>2015-06-07T11:39:29.000Z</time></trkpt>
        <trkpt lat="53.34937711" lon="-1.80944393"><ele>521.16998291</ele><time>2015-06-07T11:39:44.000Z</time></trkpt>
        <trkpt lat="53.34935649" lon="-1.80948308"><ele>521.16998291</ele><time>2015-06-07T11:39:56.000Z</time></trkpt>
        <trkpt lat="53.34922381" lon="-1.80955047"><ele>522.13000488</ele><time>2015-06-07T11:40:11.000Z</time></trkpt>
        <trkpt lat="53.34919807" lon="-1.80961920"><ele>522.13000488</ele><time>2015-06-07T11:40:24.000Z</time></trkpt>
        <trkpt lat="53.34923185" lon="-1.80961920"><ele>522.13000488</ele><time>2015-06-07T11:40:37.000Z</time></trkpt>
        <trkpt lat="53.34920394" lon="-1.80962892"><ele>521.65002441</ele><time>2015-06-07T11:40:47.000Z</time></trkpt>
        <trkpt lat="53.34919246" lon="-1.80962004"><ele>521.65002441</ele><time>2015-06-07T11:41:04.000Z</time></trkpt>
        <trkpt lat="53.34919397" lon="-1.80961811"><ele>521.65002441</ele><time>2015-06-07T11:41:21.000Z</time></trkpt>
        <trkpt lat="53.34918575" lon="-1.80962984"><ele>521.16998291</ele><time>2015-06-07T11:41:45.000Z</time></trkpt>
        <trkpt lat="53.34917821" lon="-1.80972230"><ele>521.16998291</ele><time>2015-06-07T11:41:57.000Z</time></trkpt>
        <trkpt lat="53.34916262" lon="-1.80979832"><ele>521.16998291</ele><time>2015-06-07T11:42:06.000Z</time></trkpt>
        <trkpt lat="53.34912901" lon="-1.80984819"><ele>521.16998291</ele><time>2015-06-07T11:42:11.000Z</time></trkpt>
        <trkpt lat="53.34900638" lon="-1.81018699"><ele>516.36999512</ele><time>2015-06-07T11:42:32.000Z</time></trkpt>
        <trkpt lat="53.34887763" lon="-1.81046317"><ele>515.88000488</ele><time>2015-06-07T11:42:49.000Z</time></trkpt>
        <trkpt lat="53.34876691" lon="-1.81074916"><ele>513.47998047</ele><time>2015-06-07T11:43:06.000Z</time></trkpt>
        <trkpt lat="53.34875341" lon="-1.81081127"><ele>513.00000000</ele><time>2015-06-07T11:43:17.000Z</time></trkpt>
        <trkpt lat="53.34872567" lon="-1.81108050"><ele>512.52001953</ele><time>2015-06-07T11:43:30.000Z</time></trkpt>
        <trkpt lat="53.34869675" lon="-1.81115141"><ele>512.03997803</ele><time>2015-06-07T11:43:35.000Z</time></trkpt>
        <trkpt lat="53.34866926" lon="-1.81136959"><ele>509.16000366</ele><time>2015-06-07T11:43:50.000Z</time></trkpt>
        <trkpt lat="53.34864370" lon="-1.81143640"><ele>507.70999146</ele><time>2015-06-07T11:43:56.000Z</time></trkpt>
        <trkpt lat="53.34855812" lon="-1.81159582"><ele>504.82998657</ele><time>2015-06-07T11:44:11.000Z</time></trkpt>
        <trkpt lat="53.34855242" lon="-1.81160169"><ele>504.35000610</ele><time>2015-06-07T11:44:12.000Z</time></trkpt>
        <trkpt lat="53.34845837" lon="-1.81174275"><ele>500.50000000</ele><time>2015-06-07T11:44:27.000Z</time></trkpt>
        <trkpt lat="53.34839727" lon="-1.81189665"><ele>498.10000610</ele><time>2015-06-07T11:44:42.000Z</time></trkpt>
        <trkpt lat="53.34835804" lon="-1.81198206"><ele>496.66000366</ele><time>2015-06-07T11:44:56.000Z</time></trkpt>
        <trkpt lat="53.34829937" lon="-1.81208448"><ele>494.73999023</ele><time>2015-06-07T11:45:11.000Z</time></trkpt>
        <trkpt lat="53.34826064" lon="-1.81219823"><ele>492.80999756</ele><time>2015-06-07T11:45:22.000Z</time></trkpt>
        <trkpt lat="53.34818386" lon="-1.81240794"><ele>489.45001221</ele><time>2015-06-07T11:45:38.000Z</time></trkpt>
        <trkpt lat="53.34814657" lon="-1.81251221"><ele>487.52999878</ele><time>2015-06-07T11:45:46.000Z</time></trkpt>
        <trkpt lat="53.34806593" lon="-1.81270693"><ele>484.16000366</ele><time>2015-06-07T11:46:03.000Z</time></trkpt>
        <trkpt lat="53.34806032" lon="-1.81271732"><ele>484.16000366</ele><time>2015-06-07T11:46:04.000Z</time></trkpt>
        <trkpt lat="53.34795177" lon="-1.81283752"><ele>480.79998779</ele><time>2015-06-07T11:46:18.000Z</time></trkpt>
        <trkpt lat="53.34791732" lon="-1.81285755"><ele>479.83999634</ele><time>2015-06-07T11:46:22.000Z</time></trkpt>
        <trkpt lat="53.34780391" lon="-1.81299702"><ele>476.95001221</ele><time>2015-06-07T11:46:37.000Z</time></trkpt>
        <trkpt lat="53.34775236" lon="-1.81316181"><ele>474.54998779</ele><time>2015-06-07T11:46:50.000Z</time></trkpt>
        <trkpt lat="53.34773183" lon="-1.81331227"><ele>471.66000366</ele><time>2015-06-07T11:47:04.000Z</time></trkpt>
        <trkpt lat="53.34773577" lon="-1.81332593"><ele>471.17999268</ele><time>2015-06-07T11:47:20.000Z</time></trkpt>
        <trkpt lat="53.34770962" lon="-1.81349072"><ele>467.33999634</ele><time>2015-06-07T11:47:34.000Z</time></trkpt>
        <trkpt lat="53.34760568" lon="-1.81351393"><ele>465.42001343</ele><time>2015-06-07T11:47:46.000Z</time></trkpt>
        <trkpt lat="53.34745590" lon="-1.81353087"><ele>463.48999023</ele><time>2015-06-07T11:48:02.000Z</time></trkpt>
        <trkpt lat="53.34732883" lon="-1.81355811"><ele>460.60998535</ele><time>2015-06-07T11:48:18.000Z</time></trkpt>
        <trkpt lat="53.34726747" lon="-1.81356129"><ele>459.17001343</ele><time>2015-06-07T11:48:29.000Z</time></trkpt>
        <trkpt lat="53.34727309" lon="-1.81356758"><ele>459.17001343</ele><time>2015-06-07T11:48:39.000Z</time></trkpt>
        <trkpt lat="53.34724911" lon="-1.81356548"><ele>457.72000122</ele><time>2015-06-07T11:48:54.000Z</time></trkpt>
        <trkpt lat="53.34724342" lon="-1.81357420"><ele>457.72000122</ele><time>2015-06-07T11:49:08.000Z</time></trkpt>
        <trkpt lat="53.34722799" lon="-1.81358459"><ele>456.76000977</ele><time>2015-06-07T11:49:26.000Z</time></trkpt>
        <trkpt lat="53.34724861" lon="-1.81360505"><ele>457.72000122</ele><time>2015-06-07T11:49:37.000Z</time></trkpt>
        <trkpt lat="53.34723394" lon="-1.81359189"><ele>457.72000122</ele><time>2015-06-07T11:49:49.000Z</time></trkpt>
        <trkpt lat="53.34715834" lon="-1.81360857"><ele>454.83999634</ele><time>2015-06-07T11:50:03.000Z</time></trkpt>
        <trkpt lat="53.34706438" lon="-1.81360689"><ele>452.44000244</ele><time>2015-06-07T11:50:16.000Z</time></trkpt>
        <trkpt lat="53.34703647" lon="-1.81362273"><ele>451.48001099</ele><time>2015-06-07T11:50:30.000Z</time></trkpt>
        <trkpt lat="53.34701560" lon="-1.81362164"><ele>451.00000000</ele><time>2015-06-07T11:50:48.000Z</time></trkpt>
        <trkpt lat="53.34701166" lon="-1.81362198"><ele>451.00000000</ele><time>2015-06-07T11:50:52.000Z</time></trkpt>
        <trkpt lat="53.34687889" lon="-1.81339558"><ele>446.67001343</ele><time>2015-06-07T11:51:11.000Z</time></trkpt>
        <trkpt lat="53.34674570" lon="-1.81332308"><ele>443.30999756</ele><time>2015-06-07T11:51:28.000Z</time></trkpt>
        <trkpt lat="53.34666607" lon="-1.81330916"><ele>441.38000488</ele><time>2015-06-07T11:51:38.000Z</time></trkpt>
        <trkpt lat="53.34664855" lon="-1.81331704"><ele>440.42001343</ele><time>2015-06-07T11:51:40.000Z</time></trkpt>
        <trkpt lat="53.34661989" lon="-1.81332836"><ele>438.98001099</ele><time>2015-06-07T11:51:44.000Z</time></trkpt>
        <trkpt lat="53.34650137" lon="-1.81326365"><ele>436.57998657</ele><time>2015-06-07T11:51:56.000Z</time></trkpt>
        <trkpt lat="53.34644370" lon="-1.81321780"><ele>436.10000610</ele><time>2015-06-07T11:52:02.000Z</time></trkpt>
        <trkpt lat="53.34635342" lon="-1.81318603"><ele>434.64999390</ele><time>2015-06-07T11:52:11.000Z</time></trkpt>
        <trkpt lat="53.34632417" lon="-1.81319257"><ele>433.69000244</ele><time>2015-06-07T11:52:14.000Z</time></trkpt>
        <trkpt lat="53.34625988" lon="-1.81314077"><ele>433.20999146</ele><time>2015-06-07T11:52:21.000Z</time></trkpt>
        <trkpt lat="53.34621797" lon="-1.81313491"><ele>432.25000000</ele><time>2015-06-07T11:52:25.000Z</time></trkpt>
        <trkpt lat="53.34617003" lon="-1.81311538"><ele>431.76998901</ele><time>2015-06-07T11:52:29.000Z</time></trkpt>
        <trkpt lat="53.34598454" lon="-1.81306852"><ele>429.36999512</ele><time>2015-06-07T11:52:46.000Z</time></trkpt>
        <trkpt lat="53.34576434" lon="-1.81301689"><ele>424.55999756</ele><time>2015-06-07T11:53:07.000Z</time></trkpt>
        <trkpt lat="53.34564691" lon="-1.81294799"><ele>421.67999268</ele><time>2015-06-07T11:53:21.000Z</time></trkpt>
        <trkpt lat="53.34548741" lon="-1.81290021"><ele>421.67999268</ele><time>2015-06-07T11:53:37.000Z</time></trkpt>
        <trkpt lat="53.34536428" lon="-1.81289594"><ele>419.75000000</ele><time>2015-06-07T11:53:51.000Z</time></trkpt>
        <trkpt lat="53.34531843" lon="-1.81289116"><ele>419.75000000</ele><time>2015-06-07T11:54:04.000Z</time></trkpt>
        <trkpt lat="53.34528758" lon="-1.81282871"><ele>419.75000000</ele><time>2015-06-07T11:54:16.000Z</time></trkpt>
        <trkpt lat="53.34516387" lon="-1.81267516"><ele>418.30999756</ele><time>2015-06-07T11:54:34.000Z</time></trkpt>
        <trkpt lat="53.34512263" lon="-1.81262713"><ele>417.82998657</ele><time>2015-06-07T11:54:45.000Z</time></trkpt>
        <trkpt lat="53.34500503" lon="-1.81254515"><ele>417.35000610</ele><time>2015-06-07T11:54:56.000Z</time></trkpt>
        <trkpt lat="53.34486832" lon="-1.81243091"><ele>416.86999512</ele><time>2015-06-07T11:55:12.000Z</time></trkpt>
        <trkpt lat="53.34481208" lon="-1.81239428"><ele>416.39001465</ele><time>2015-06-07T11:55:17.000Z</time></trkpt>
        <trkpt lat="53.34459272" lon="-1.81226151"><ele>416.86999512</ele><time>2015-06-07T11:55:36.000Z</time></trkpt>
        <trkpt lat="53.34435820" lon="-1.81215531"><ele>416.39001465</ele><time>2015-06-07T11:55:56.000Z</time></trkpt>
        <trkpt lat="53.34415644" lon="-1.81199756"><ele>416.39001465</ele><time>2015-06-07T11:56:14.000Z</time></trkpt>
        <trkpt lat="53.34413876" lon="-1.81199891"><ele>416.39001465</ele><time>2015-06-07T11:56:21.000Z</time></trkpt>
        <trkpt lat="53.34409316" lon="-1.81198793"><ele>414.95001221</ele><time>2015-06-07T11:56:33.000Z</time></trkpt>
        <trkpt lat="53.34409006" lon="-1.81197896"><ele>414.95001221</ele><time>2015-06-07T11:56:34.000Z</time></trkpt>
        <trkpt lat="53.34399451" lon="-1.81184317"><ele>413.98001099</ele><time>2015-06-07T11:56:47.000Z</time></trkpt>
        <trkpt lat="53.34388269" lon="-1.81179984"><ele>413.50000000</ele><time>2015-06-07T11:56:59.000Z</time></trkpt>
        <trkpt lat="53.34382620" lon="-1.81192749"><ele>413.01998901</ele><time>2015-06-07T11:57:09.000Z</time></trkpt>
        <trkpt lat="53.34382620" lon="-1.81204341"><ele>412.54000854</ele><time>2015-06-07T11:57:16.000Z</time></trkpt>
        <trkpt lat="53.34388143" lon="-1.81224676"><ele>414.95001221</ele><time>2015-06-07T11:57:30.000Z</time></trkpt>
        <trkpt lat="53.34385361" lon="-1.81229747"><ele>415.42999268</ele><time>2015-06-07T11:57:41.000Z</time></trkpt>
        <trkpt lat="53.34385478" lon="-1.81229906"><ele>415.42999268</ele><time>2015-06-07T11:57:55.000Z</time></trkpt>
        <trkpt lat="53.34384799" lon="-1.81231515"><ele>415.42999268</ele><time>2015-06-07T11:58:08.000Z</time></trkpt>
        <trkpt lat="53.34384665" lon="-1.81230962"><ele>413.50000000</ele><time>2015-06-07T11:58:42.000Z</time></trkpt>
        <trkpt lat="53.34385319" lon="-1.81231331"><ele>413.50000000</ele><time>2015-06-07T11:59:16.000Z</time></trkpt>
        <trkpt lat="53.34385654" lon="-1.81231733"><ele>413.50000000</ele><time>2015-06-07T11:59:37.000Z</time></trkpt>
        <trkpt lat="53.34386148" lon="-1.81232295"><ele>413.98001099</ele><time>2015-06-07T11:59:57.000Z</time></trkpt>
        <trkpt lat="53.34386484" lon="-1.81232907"><ele>414.95001221</ele><time>2015-06-07T12:00:08.000Z</time></trkpt>
        <trkpt lat="53.34386375" lon="-1.81232437"><ele>415.91000366</ele><time>2015-06-07T12:00:27.000Z</time></trkpt>
        <trkpt lat="53.34385721" lon="-1.81230946"><ele>415.42999268</ele><time>2015-06-07T12:00:45.000Z</time></trkpt>
        <trkpt lat="53.34384925" lon="-1.81229495"><ele>416.39001465</ele><time>2015-06-07T12:01:16.000Z</time></trkpt>
        <trkpt lat="53.34384715" lon="-1.81229336"><ele>416.39001465</ele><time>2015-06-07T12:01:45.000Z</time></trkpt>
        <trkpt lat="53.34384564" lon="-1.81230208"><ele>416.39001465</ele><time>2015-06-07T12:02:32.000Z</time></trkpt>
        <trkpt lat="53.34384925" lon="-1.81230367"><ele>416.86999512</ele><time>2015-06-07T12:03:01.000Z</time></trkpt>
        <trkpt lat="53.34385134" lon="-1.81232136"><ele>415.91000366</ele><time>2015-06-07T12:03:41.000Z</time></trkpt>
        <trkpt lat="53.34385285" lon="-1.81232077"><ele>415.42999268</ele><time>2015-06-07T12:04:26.000Z</time></trkpt>
        <trkpt lat="53.34385235" lon="-1.81231650"><ele>415.42999268</ele><time>2015-06-07T12:05:00.000Z</time></trkpt>
        <trkpt lat="53.34385998" lon="-1.81231658"><ele>415.91000366</ele><time>2015-06-07T12:05:35.000Z</time></trkpt>
        <trkpt lat="53.34386081" lon="-1.81230367"><ele>417.35000610</ele><time>2015-06-07T12:06:19.000Z</time></trkpt>
        <trkpt lat="53.34386190" lon="-1.81230116"><ele>418.30999756</ele><time>2015-06-07T12:06:51.000Z</time></trkpt>
        <trkpt lat="53.34386249" lon="-1.81228892"><ele>419.26998901</ele><time>2015-06-07T12:07:18.000Z</time></trkpt>
        <trkpt lat="53.34386442" lon="-1.81228657"><ele>419.75000000</ele><time>2015-06-07T12:07:49.000Z</time></trkpt>
        <trkpt lat="53.34385436" lon="-1.81227878"><ele>419.75000000</ele><time>2015-06-07T12:08:15.000Z</time></trkpt>
        <trkpt lat="53.34384363" lon="-1.81228356"><ele>419.26998901</ele><time>2015-06-07T12:08:36.000Z</time></trkpt>
        <trkpt lat="53.34383768" lon="-1.81228967"><ele>419.75000000</ele><time>2015-06-07T12:08:54.000Z</time></trkpt>
        <trkpt lat="53.34383667" lon="-1.81228356"><ele>420.23001099</ele><time>2015-06-07T12:09:13.000Z</time></trkpt>
        <trkpt lat="53.34384170" lon="-1.81229546"><ele>420.70999146</ele><time>2015-06-07T12:09:30.000Z</time></trkpt>
        <trkpt lat="53.34384657" lon="-1.81229588"><ele>420.70999146</ele><time>2015-06-07T12:10:04.000Z</time></trkpt>
        <trkpt lat="53.34385034" lon="-1.81228666"><ele>421.67999268</ele><time>2015-06-07T12:10:43.000Z</time></trkpt>
        <trkpt lat="53.34385562" lon="-1.81228682"><ele>421.67999268</ele><time>2015-06-07T12:11:20.000Z</time></trkpt>
        <trkpt lat="53.34385453" lon="-1.81229085"><ele>421.19000244</ele><time>2015-06-07T12:11:54.000Z</time></trkpt>
        <trkpt lat="53.34385134" lon="-1.81229185"><ele>420.23001099</ele><time>2015-06-07T12:12:23.000Z</time></trkpt>
        <trkpt lat="53.34385780" lon="-1.81229286"><ele>420.23001099</ele><time>2015-06-07T12:12:56.000Z</time></trkpt>
        <trkpt lat="53.34385126" lon="-1.81227584"><ele>419.75000000</ele><time>2015-06-07T12:13:26.000Z</time></trkpt>
        <trkpt lat="53.34385059" lon="-1.81226889"><ele>419.75000000</ele><time>2015-06-07T12:13:46.000Z</time></trkpt>
        <trkpt lat="53.34385017" lon="-1.81225791"><ele>418.30999756</ele><time>2015-06-07T12:14:15.000Z</time></trkpt>
        <trkpt lat="53.34384858" lon="-1.81225355"><ele>417.82998657</ele><time>2015-06-07T12:14:47.000Z</time></trkpt>
        <trkpt lat="53.34384807" lon="-1.81226151"><ele>418.30999756</ele><time>2015-06-07T12:15:10.000Z</time></trkpt>
        <trkpt lat="53.34383944" lon="-1.81224424"><ele>417.82998657</ele><time>2015-06-07T12:15:46.000Z</time></trkpt>
        <trkpt lat="53.34383299" lon="-1.81224542"><ele>417.82998657</ele><time>2015-06-07T12:16:13.000Z</time></trkpt>
        <trkpt lat="53.34383533" lon="-1.81224466"><ele>419.75000000</ele><time>2015-06-07T12:16:35.000Z</time></trkpt>
        <trkpt lat="53.34382829" lon="-1.81222949"><ele>419.26998901</ele><time>2015-06-07T12:16:58.000Z</time></trkpt>
        <trkpt lat="53.34383097" lon="-1.81223419"><ele>419.75000000</ele><time>2015-06-07T12:17:21.000Z</time></trkpt>
        <trkpt lat="53.34383030" lon="-1.81225020"><ele>418.79000854</ele><time>2015-06-07T12:17:46.000Z</time></trkpt>
        <trkpt lat="53.34383047" lon="-1.81225807"><ele>418.30999756</ele><time>2015-06-07T12:18:11.000Z</time></trkpt>
        <trkpt lat="53.34382670" lon="-1.81226302"><ele>418.30999756</ele><time>2015-06-07T12:18:29.000Z</time></trkpt>
        <trkpt lat="53.34383005" lon="-1.81226822"><ele>417.82998657</ele><time>2015-06-07T12:18:51.000Z</time></trkpt>
        <trkpt lat="53.34382662" lon="-1.81229269"><ele>416.86999512</ele><time>2015-06-07T12:19:18.000Z</time></trkpt>
        <trkpt lat="53.34381798" lon="-1.81229739"><ele>415.91000366</ele><time>2015-06-07T12:19:38.000Z</time></trkpt>
        <trkpt lat="53.34381689" lon="-1.81229713"><ele>415.42999268</ele><time>2015-06-07T12:19:56.000Z</time></trkpt>
        <trkpt lat="53.34382092" lon="-1.81229462"><ele>415.42999268</ele><time>2015-06-07T12:20:27.000Z</time></trkpt>
        <trkpt lat="53.34382938" lon="-1.81230225"><ele>414.95001221</ele><time>2015-06-07T12:20:38.000Z</time></trkpt>
        <trkpt lat="53.34383734" lon="-1.81229998"><ele>415.42999268</ele><time>2015-06-07T12:20:55.000Z</time></trkpt>
        <trkpt lat="53.34384162" lon="-1.81230786"><ele>414.95001221</ele><time>2015-06-07T12:21:12.000Z</time></trkpt>
        <trkpt lat="53.34383609" lon="-1.81231122"><ele>414.47000122</ele><time>2015-06-07T12:21:35.000Z</time></trkpt>
        <trkpt lat="53.34383399" lon="-1.81231381"><ele>413.98001099</ele><time>2015-06-07T12:21:52.000Z</time></trkpt>
        <trkpt lat="53.34383835" lon="-1.81232614"><ele>414.95001221</ele><time>2015-06-07T12:22:18.000Z</time></trkpt>
        <trkpt lat="53.34384061" lon="-1.81233209"><ele>414.47000122</ele><time>2015-06-07T12:22:45.000Z</time></trkpt>
        <trkpt lat="53.34384103" lon="-1.81233460"><ele>413.98001099</ele><time>2015-06-07T12:22:58.000Z</time></trkpt>
        <trkpt lat="53.34384589" lon="-1.81231985"><ele>413.50000000</ele><time>2015-06-07T12:23:11.000Z</time></trkpt>
        <trkpt lat="53.34384439" lon="-1.81232647"><ele>413.01998901</ele><time>2015-06-07T12:23:28.000Z</time></trkpt>
        <trkpt lat="53.34383986" lon="-1.81229646"><ele>413.01998901</ele><time>2015-06-07T12:23:50.000Z</time></trkpt>
        <trkpt lat="53.34386970" lon="-1.81231163"><ele>413.01998901</ele><time>2015-06-07T12:24:04.000Z</time></trkpt>
        <trkpt lat="53.34387758" lon="-1.81232823"><ele>412.05999756</ele><time>2015-06-07T12:24:27.000Z</time></trkpt>
        <trkpt lat="53.34388873" lon="-1.81231800"><ele>412.05999756</ele><time>2015-06-07T12:24:39.000Z</time></trkpt>
        <trkpt lat="53.34391806" lon="-1.81228724"><ele>412.05999756</ele><time>2015-06-07T12:24:45.000Z</time></trkpt>
        <trkpt lat="53.34398830" lon="-1.81229982"><ele>416.39001465</ele><time>2015-06-07T12:25:00.000Z</time></trkpt>
        <trkpt lat="53.34395578" lon="-1.81238766"><ele>417.82998657</ele><time>2015-06-07T12:25:10.000Z</time></trkpt>
        <trkpt lat="53.34391815" lon="-1.81241389"><ele>417.82998657</ele><time>2015-06-07T12:25:14.000Z</time></trkpt>
        <trkpt lat="53.34378337" lon="-1.81246050"><ele>419.26998901</ele><time>2015-06-07T12:25:27.000Z</time></trkpt>
        <trkpt lat="53.34368479" lon="-1.81247148"><ele>420.23001099</ele><time>2015-06-07T12:25:36.000Z</time></trkpt>
        <trkpt lat="53.34351238" lon="-1.81240610"><ele>422.16000366</ele><time>2015-06-07T12:25:52.000Z</time></trkpt>
        <trkpt lat="53.34330359" lon="-1.81231943"><ele>422.16000366</ele><time>2015-06-07T12:26:09.000Z</time></trkpt>
        <trkpt lat="53.34314944" lon="-1.81223335"><ele>422.16000366</ele><time>2015-06-07T12:26:23.000Z</time></trkpt>
        <trkpt lat="53.34295532" lon="-1.81215120"><ele>422.16000366</ele><time>2015-06-07T12:26:39.000Z</time></trkpt>
        <trkpt lat="53.34273680" lon="-1.81203051"><ele>419.75000000</ele><time>2015-06-07T12:26:57.000Z</time></trkpt>
        <trkpt lat="53.34256690" lon="-1.81190134"><ele>417.82998657</ele><time>2015-06-07T12:27:12.000Z</time></trkpt>
        <trkpt lat="53.34253119" lon="-1.81184133"><ele>417.82998657</ele><time>2015-06-07T12:27:16.000Z</time></trkpt>
        <trkpt lat="53.34251099" lon="-1.81182372"><ele>417.82998657</ele><time>2015-06-07T12:27:18.000Z</time></trkpt>
        <trkpt lat="53.34229960" lon="-1.81175692"><ele>418.30999756</ele><time>2015-06-07T12:27:35.000Z</time></trkpt>
        <trkpt lat="53.34207094" lon="-1.81163974"><ele>418.79000854</ele><time>2015-06-07T12:27:54.000Z</time></trkpt>
        <trkpt lat="53.34207027" lon="-1.81162993"><ele>418.79000854</ele><time>2015-06-07T12:28:09.000Z</time></trkpt>
        <trkpt lat="53.34205443" lon="-1.81161719"><ele>418.79000854</ele><time>2015-06-07T12:28:20.000Z</time></trkpt>
        <trkpt lat="53.34197338" lon="-1.81158601"><ele>418.30999756</ele><time>2015-06-07T12:28:32.000Z</time></trkpt>
        <trkpt lat="53.34172561" lon="-1.81145593"><ele>419.26998901</ele><time>2015-06-07T12:28:52.000Z</time></trkpt>
        <trkpt lat="53.34152511" lon="-1.81137043"><ele>418.30999756</ele><time>2015-06-07T12:29:08.000Z</time></trkpt>
        <trkpt lat="53.34128925" lon="-1.81126448"><ele>419.75000000</ele><time>2015-06-07T12:29:27.000Z</time></trkpt>
        <trkpt lat="53.34111851" lon="-1.81117924"><ele>420.23001099</ele><time>2015-06-07T12:29:43.000Z</time></trkpt>
        <trkpt lat="53.34106646" lon="-1.81113834"><ele>420.70999146</ele><time>2015-06-07T12:29:58.000Z</time></trkpt>
        <trkpt lat="53.34101063" lon="-1.81110908"><ele>421.19000244</ele><time>2015-06-07T12:30:05.000Z</time></trkpt>
        <trkpt lat="53.34092589" lon="-1.81106508"><ele>421.19000244</ele><time>2015-06-07T12:30:20.000Z</time></trkpt>
        <trkpt lat="53.34087526" lon="-1.81106709"><ele>420.23001099</ele><time>2015-06-07T12:30:30.000Z</time></trkpt>
        <trkpt lat="53.34078876" lon="-1.81120195"><ele>421.19000244</ele><time>2015-06-07T12:30:46.000Z</time></trkpt>
        <trkpt lat="53.34077921" lon="-1.81119869"><ele>421.19000244</ele><time>2015-06-07T12:30:47.000Z</time></trkpt>
        <trkpt lat="53.34072623" lon="-1.81116549"><ele>422.16000366</ele><time>2015-06-07T12:30:53.000Z</time></trkpt>
        <trkpt lat="53.34069271" lon="-1.81110531"><ele>420.70999146</ele><time>2015-06-07T12:31:06.000Z</time></trkpt>
        <trkpt lat="53.34058793" lon="-1.81105494"><ele>423.11999512</ele><time>2015-06-07T12:31:19.000Z</time></trkpt>
        <trkpt lat="53.34044636" lon="-1.81091940"><ele>425.51998901</ele><time>2015-06-07T12:31:34.000Z</time></trkpt>
        <trkpt lat="53.34037009" lon="-1.81084799"><ele>426.95999146</ele><time>2015-06-07T12:31:44.000Z</time></trkpt>
        <trkpt lat="53.34031686" lon="-1.81079325"><ele>427.44000244</ele><time>2015-06-07T12:31:51.000Z</time></trkpt>
        <trkpt lat="53.34027051" lon="-1.81074564"><ele>427.92001343</ele><time>2015-06-07T12:31:56.000Z</time></trkpt>
        <trkpt lat="53.34025148" lon="-1.81072519"><ele>427.92001343</ele><time>2015-06-07T12:31:58.000Z</time></trkpt>
        <trkpt lat="53.34022298" lon="-1.81070248"><ele>427.92001343</ele><time>2015-06-07T12:32:01.000Z</time></trkpt>
        <trkpt lat="53.34016322" lon="-1.81063785"><ele>427.92001343</ele><time>2015-06-07T12:32:07.000Z</time></trkpt>
        <trkpt lat="53.34013858" lon="-1.81061447"><ele>427.92001343</ele><time>2015-06-07T12:32:09.000Z</time></trkpt>
        <trkpt lat="53.33997882" lon="-1.81047667"><ele>428.39999390</ele><time>2015-06-07T12:32:24.000Z</time></trkpt>
        <trkpt lat="53.33981772" lon="-1.81029554"><ele>428.39999390</ele><time>2015-06-07T12:32:41.000Z</time></trkpt>
        <trkpt lat="53.33977564" lon="-1.81026326"><ele>428.89001465</ele><time>2015-06-07T12:32:55.000Z</time></trkpt>
        <trkpt lat="53.33976617" lon="-1.81025966"><ele>428.89001465</ele><time>2015-06-07T12:32:56.000Z</time></trkpt>
        <trkpt lat="53.33972560" lon="-1.81023418"><ele>429.36999512</ele><time>2015-06-07T12:33:01.000Z</time></trkpt>
        <trkpt lat="53.33951564" lon="-1.81001256"><ele>429.85000610</ele><time>2015-06-07T12:33:21.000Z</time></trkpt>
        <trkpt lat="53.33932252" lon="-1.80985389"><ele>431.29000854</ele><time>2015-06-07T12:33:39.000Z</time></trkpt>
        <trkpt lat="53.33913300" lon="-1.80968466"><ele>432.25000000</ele><time>2015-06-07T12:33:57.000Z</time></trkpt>
        <trkpt lat="53.33893930" lon="-1.80950822"><ele>433.69000244</ele><time>2015-06-07T12:34:15.000Z</time></trkpt>
        <trkpt lat="53.33874567" lon="-1.80932910"><ele>434.17001343</ele><time>2015-06-07T12:34:33.000Z</time></trkpt>
        <trkpt lat="53.33866135" lon="-1.80922584"><ele>433.20999146</ele><time>2015-06-07T12:34:47.000Z</time></trkpt>
        <trkpt lat="53.33849573" lon="-1.80906155"><ele>434.17001343</ele><time>2015-06-07T12:35:05.000Z</time></trkpt>
        <trkpt lat="53.33828031" lon="-1.80886508"><ele>434.64999390</ele><time>2015-06-07T12:35:25.000Z</time></trkpt>
        <trkpt lat="53.33805987" lon="-1.80867079"><ele>436.10000610</ele><time>2015-06-07T12:35:45.000Z</time></trkpt>
        <trkpt lat="53.33786239" lon="-1.80848538"><ele>437.05999756</ele><time>2015-06-07T12:36:03.000Z</time></trkpt>
        <trkpt lat="53.33773423" lon="-1.80835999"><ele>438.50000000</ele><time>2015-06-07T12:36:15.000Z</time></trkpt>
        <trkpt lat="53.33771512" lon="-1.80835119"><ele>438.50000000</ele><time>2015-06-07T12:36:17.000Z</time></trkpt>
        <trkpt lat="53.33749166" lon="-1.80813602"><ele>439.94000244</ele><time>2015-06-07T12:36:37.000Z</time></trkpt>
        <trkpt lat="53.33727230" lon="-1.80787727"><ele>439.45999146</ele><time>2015-06-07T12:36:58.000Z</time></trkpt>
        <trkpt lat="53.33708606" lon="-1.80764752"><ele>440.42001343</ele><time>2015-06-07T12:37:15.000Z</time></trkpt>
        <trkpt lat="53.33690928" lon="-1.80749045"><ele>440.89999390</ele><time>2015-06-07T12:37:32.000Z</time></trkpt>
        <trkpt lat="53.33670292" lon="-1.80729356"><ele>441.85998535</ele><time>2015-06-07T12:37:51.000Z</time></trkpt>
        <trkpt lat="53.33652103" lon="-1.80711268"><ele>442.33999634</ele><time>2015-06-07T12:38:08.000Z</time></trkpt>
        <trkpt lat="53.33633319" lon="-1.80693900"><ele>442.33999634</ele><time>2015-06-07T12:38:25.000Z</time></trkpt>
        <trkpt lat="53.33615734" lon="-1.80678980"><ele>442.82000732</ele><time>2015-06-07T12:38:41.000Z</time></trkpt>
        <trkpt lat="53.33598518" lon="-1.80665125"><ele>443.30999756</ele><time>2015-06-07T12:38:56.000Z</time></trkpt>
        <trkpt lat="53.33596221" lon="-1.80663206"><ele>443.30999756</ele><time>2015-06-07T12:38:58.000Z</time></trkpt>
        <trkpt lat="53.33591351" lon="-1.80659023"><ele>443.30999756</ele><time>2015-06-07T12:39:02.000Z</time></trkpt>
        <trkpt lat="53.33574571" lon="-1.80640935"><ele>442.82000732</ele><time>2015-06-07T12:39:18.000Z</time></trkpt>
        <trkpt lat="53.33552484" lon="-1.80619519"><ele>447.14999390</ele><time>2015-06-07T12:39:36.000Z</time></trkpt>
        <trkpt lat="53.33538730" lon="-1.80608304"><ele>447.14999390</ele><time>2015-06-07T12:39:48.000Z</time></trkpt>
        <trkpt lat="53.33519217" lon="-1.80586134"><ele>448.10998535</ele><time>2015-06-07T12:40:06.000Z</time></trkpt>
        <trkpt lat="53.33503895" lon="-1.80570913"><ele>448.58999634</ele><time>2015-06-07T12:40:21.000Z</time></trkpt>
        <trkpt lat="53.33494197" lon="-1.80561516"><ele>448.10998535</ele><time>2015-06-07T12:40:31.000Z</time></trkpt>
        <trkpt lat="53.33477919" lon="-1.80548650"><ele>449.54998779</ele><time>2015-06-07T12:40:47.000Z</time></trkpt>
        <trkpt lat="53.33460468" lon="-1.80535139"><ele>449.07000732</ele><time>2015-06-07T12:41:03.000Z</time></trkpt>
        <trkpt lat="53.33455171" lon="-1.80534828"><ele>449.07000732</ele><time>2015-06-07T12:41:08.000Z</time></trkpt>
        <trkpt lat="53.33448096" lon="-1.80532951"><ele>448.58999634</ele><time>2015-06-07T12:41:17.000Z</time></trkpt>
        <trkpt lat="53.33441650" lon="-1.80519221"><ele>448.10998535</ele><time>2015-06-07T12:41:27.000Z</time></trkpt>
        <trkpt lat="53.33439287" lon="-1.80515173"><ele>448.10998535</ele><time>2015-06-07T12:41:30.000Z</time></trkpt>
        <trkpt lat="53.33433386" lon="-1.80510052"><ele>447.63000488</ele><time>2015-06-07T12:41:36.000Z</time></trkpt>
        <trkpt lat="53.33431634" lon="-1.80507830"><ele>447.63000488</ele><time>2015-06-07T12:41:38.000Z</time></trkpt>
        <trkpt lat="53.33421358" lon="-1.80501661"><ele>447.63000488</ele><time>2015-06-07T12:41:52.000Z</time></trkpt>
        <trkpt lat="53.33413789" lon="-1.80495450"><ele>448.10998535</ele><time>2015-06-07T12:42:00.000Z</time></trkpt>
        <trkpt lat="53.33409456" lon="-1.80493598"><ele>448.10998535</ele><time>2015-06-07T12:42:04.000Z</time></trkpt>
        <trkpt lat="53.33400772" lon="-1.80486021"><ele>447.63000488</ele><time>2015-06-07T12:42:19.000Z</time></trkpt>
        <trkpt lat="53.33400906" lon="-1.80487320"><ele>447.63000488</ele><time>2015-06-07T12:42:32.000Z</time></trkpt>
        <trkpt lat="53.33384369" lon="-1.80479986"><ele>448.58999634</ele><time>2015-06-07T12:42:49.000Z</time></trkpt>
        <trkpt lat="53.33370295" lon="-1.80473087"><ele>447.14999390</ele><time>2015-06-07T12:43:01.000Z</time></trkpt>
        <trkpt lat="53.33352752" lon="-1.80460364"><ele>443.79000854</ele><time>2015-06-07T12:43:16.000Z</time></trkpt>
        <trkpt lat="53.33331906" lon="-1.80444212"><ele>442.33999634</ele><time>2015-06-07T12:43:35.000Z</time></trkpt>
        <trkpt lat="53.33322259" lon="-1.80434916"><ele>441.85998535</ele><time>2015-06-07T12:43:45.000Z</time></trkpt>
        <trkpt lat="53.33302234" lon="-1.80418077"><ele>440.42001343</ele><time>2015-06-07T12:44:04.000Z</time></trkpt>
        <trkpt lat="53.33282897" lon="-1.80403073"><ele>440.89999390</ele><time>2015-06-07T12:44:22.000Z</time></trkpt>
        <trkpt lat="53.33256746" lon="-1.80381297"><ele>438.98001099</ele><time>2015-06-07T12:44:44.000Z</time></trkpt>
        <trkpt lat="53.33234794" lon="-1.80363460"><ele>438.98001099</ele><time>2015-06-07T12:45:03.000Z</time></trkpt>
        <trkpt lat="53.33212179" lon="-1.80343369"><ele>439.45999146</ele><time>2015-06-07T12:45:23.000Z</time></trkpt>
        <trkpt lat="53.33187008" lon="-1.80321283"><ele>438.98001099</ele><time>2015-06-07T12:45:45.000Z</time></trkpt>
        <trkpt lat="53.33169180" lon="-1.80306329"><ele>438.50000000</ele><time>2015-06-07T12:46:01.000Z</time></trkpt>
        <trkpt lat="53.33150094" lon="-1.80286540"><ele>436.57998657</ele><time>2015-06-07T12:46:19.000Z</time></trkpt>
        <trkpt lat="53.33146197" lon="-1.80282064"><ele>436.10000610</ele><time>2015-06-07T12:46:23.000Z</time></trkpt>
        <trkpt lat="53.33139508" lon="-1.80277730"><ele>435.60998535</ele><time>2015-06-07T12:46:29.000Z</time></trkpt>
        <trkpt lat="53.33134311" lon="-1.80272793"><ele>435.13000488</ele><time>2015-06-07T12:46:34.000Z</time></trkpt>
        <trkpt lat="53.33114815" lon="-1.80255393"><ele>434.64999390</ele><time>2015-06-07T12:46:53.000Z</time></trkpt>
        <trkpt lat="53.33096408" lon="-1.80236232"><ele>433.20999146</ele><time>2015-06-07T12:47:12.000Z</time></trkpt>
        <trkpt lat="53.33095361" lon="-1.80235469"><ele>433.20999146</ele><time>2015-06-07T12:47:13.000Z</time></trkpt>
        <trkpt lat="53.33092712" lon="-1.80232032"><ele>433.20999146</ele><time>2015-06-07T12:47:16.000Z</time></trkpt>
        <trkpt lat="53.33075529" lon="-1.80216308"><ele>432.73001099</ele><time>2015-06-07T12:47:33.000Z</time></trkpt>
        <trkpt lat="53.33058304" lon="-1.80204120"><ele>432.73001099</ele><time>2015-06-07T12:47:52.000Z</time></trkpt>
        <trkpt lat="53.33055890" lon="-1.80202637"><ele>432.73001099</ele><time>2015-06-07T12:47:55.000Z</time></trkpt>
        <trkpt lat="53.33048061" lon="-1.80197004"><ele>433.69000244</ele><time>2015-06-07T12:48:02.000Z</time></trkpt>
        <trkpt lat="53.33027266" lon="-1.80183970"><ele>435.13000488</ele><time>2015-06-07T12:48:21.000Z</time></trkpt>
        <trkpt lat="53.33005590" lon="-1.80167793"><ele>434.64999390</ele><time>2015-06-07T12:48:40.000Z</time></trkpt>
        <trkpt lat="53.32984116" lon="-1.80151935"><ele>434.17001343</ele><time>2015-06-07T12:48:59.000Z</time></trkpt>
        <trkpt lat="53.32961091" lon="-1.80134811"><ele>433.69000244</ele><time>2015-06-07T12:49:19.000Z</time></trkpt>
        <trkpt lat="53.32939147" lon="-1.80117083"><ele>434.17001343</ele><time>2015-06-07T12:49:39.000Z</time></trkpt>
        <trkpt lat="53.32923766" lon="-1.80107603"><ele>433.20999146</ele><time>2015-06-07T12:49:56.000Z</time></trkpt>
        <trkpt lat="53.32917455" lon="-1.80102699"><ele>432.73001099</ele><time>2015-06-07T12:50:11.000Z</time></trkpt>
        <trkpt lat="53.32914496" lon="-1.80101543"><ele>432.25000000</ele><time>2015-06-07T12:50:29.000Z</time></trkpt>
        <trkpt lat="53.32910724" lon="-1.80067101"><ele>431.29000854</ele><time>2015-06-07T12:50:47.000Z</time></trkpt>
        <trkpt lat="53.32907405" lon="-1.80036239"><ele>430.32998657</ele><time>2015-06-07T12:51:03.000Z</time></trkpt>
        <trkpt lat="53.32902141" lon="-1.79997800"><ele>429.36999512</ele><time>2015-06-07T12:51:22.000Z</time></trkpt>
        <trkpt lat="53.32901286" lon="-1.79991748"><ele>429.85000610</ele><time>2015-06-07T12:51:35.000Z</time></trkpt>
        <trkpt lat="53.32901822" lon="-1.79990659"><ele>430.32998657</ele><time>2015-06-07T12:51:45.000Z</time></trkpt>
        <trkpt lat="53.32894689" lon="-1.79962445"><ele>430.32998657</ele><time>2015-06-07T12:52:01.000Z</time></trkpt>
        <trkpt lat="53.32884396" lon="-1.79923419"><ele>429.85000610</ele><time>2015-06-07T12:52:21.000Z</time></trkpt>
        <trkpt lat="53.32877129" lon="-1.79895172"><ele>429.36999512</ele><time>2015-06-07T12:52:36.000Z</time></trkpt>
        <trkpt lat="53.32870047" lon="-1.79865710"><ele>429.85000610</ele><time>2015-06-07T12:52:54.000Z</time></trkpt>
        <trkpt lat="53.32866426" lon="-1.79853589"><ele>429.85000610</ele><time>2015-06-07T12:53:01.000Z</time></trkpt>
        <trkpt lat="53.32858228" lon="-1.79825770"><ele>429.85000610</ele><time>2015-06-07T12:53:20.000Z</time></trkpt>
        <trkpt lat="53.32853987" lon="-1.79816684"><ele>429.85000610</ele><time>2015-06-07T12:53:34.000Z</time></trkpt>
        <trkpt lat="53.32852864" lon="-1.79817069"><ele>428.39999390</ele><time>2015-06-07T12:53:51.000Z</time></trkpt>
        <trkpt lat="53.32856493" lon="-1.79813012"><ele>428.89001465</ele><time>2015-06-07T12:54:09.000Z</time></trkpt>
        <trkpt lat="53.32861396" lon="-1.79809744"><ele>428.89001465</ele><time>2015-06-07T12:54:22.000Z</time></trkpt>
        <trkpt lat="53.32863827" lon="-1.79809165"><ele>429.36999512</ele><time>2015-06-07T12:54:32.000Z</time></trkpt>
        <trkpt lat="53.32867146" lon="-1.79808344"><ele>430.32998657</ele><time>2015-06-07T12:54:35.000Z</time></trkpt>
        <trkpt lat="53.32875755" lon="-1.79799819"><ele>430.80999756</ele><time>2015-06-07T12:54:44.000Z</time></trkpt>
        <trkpt lat="53.32878554" lon="-1.79798093"><ele>430.80999756</ele><time>2015-06-07T12:54:47.000Z</time></trkpt>
        <trkpt lat="53.32886919" lon="-1.79790658"><ele>429.85000610</ele><time>2015-06-07T12:55:02.000Z</time></trkpt>
        <trkpt lat="53.32889275" lon="-1.79787464"><ele>428.39999390</ele><time>2015-06-07T12:55:21.000Z</time></trkpt>
        <trkpt lat="53.32889677" lon="-1.79786014"><ele>428.39999390</ele><time>2015-06-07T12:55:22.000Z</time></trkpt>
        <trkpt lat="53.32892284" lon="-1.79779778"><ele>428.39999390</ele><time>2015-06-07T12:55:26.000Z</time></trkpt>
        <trkpt lat="53.32906265" lon="-1.79748472"><ele>428.39999390</ele><time>2015-06-07T12:55:44.000Z</time></trkpt>
        <trkpt lat="53.32919274" lon="-1.79725346"><ele>427.44000244</ele><time>2015-06-07T12:55:59.000Z</time></trkpt>
        <trkpt lat="53.32935786" lon="-1.79691609"><ele>426.48001099</ele><time>2015-06-07T12:56:19.000Z</time></trkpt>
        <trkpt lat="53.32951812" lon="-1.79661350"><ele>425.51998901</ele><time>2015-06-07T12:56:37.000Z</time></trkpt>
        <trkpt lat="53.32965307" lon="-1.79634679"><ele>425.04000854</ele><time>2015-06-07T12:56:55.000Z</time></trkpt>
        <trkpt lat="53.32968769" lon="-1.79628124"><ele>426.00000000</ele><time>2015-06-07T12:57:10.000Z</time></trkpt>
        <trkpt lat="53.32972230" lon="-1.79617228"><ele>426.48001099</ele><time>2015-06-07T12:57:21.000Z</time></trkpt>
        <trkpt lat="53.32974460" lon="-1.79613783"><ele>426.48001099</ele><time>2015-06-07T12:57:24.000Z</time></trkpt>
        <trkpt lat="53.32977452" lon="-1.79606734"><ele>426.00000000</ele><time>2015-06-07T12:57:29.000Z</time></trkpt>
        <trkpt lat="53.32985952" lon="-1.79588554"><ele>425.51998901</ele><time>2015-06-07T12:57:44.000Z</time></trkpt>
        <trkpt lat="53.32986069" lon="-1.79588294"><ele>425.51998901</ele><time>2015-06-07T12:57:46.000Z</time></trkpt>
        <trkpt lat="53.32988743" lon="-1.79584044"><ele>425.04000854</ele><time>2015-06-07T12:57:50.000Z</time></trkpt>
        <trkpt lat="53.33008910" lon="-1.79554339"><ele>423.11999512</ele><time>2015-06-07T12:58:10.000Z</time></trkpt>
        <trkpt lat="53.33026009" lon="-1.79527466"><ele>421.19000244</ele><time>2015-06-07T12:58:27.000Z</time></trkpt>
        <trkpt lat="53.33040568" lon="-1.79498834"><ele>420.70999146</ele><time>2015-06-07T12:58:44.000Z</time></trkpt>
        <trkpt lat="53.33056158" lon="-1.79469422"><ele>420.23001099</ele><time>2015-06-07T12:59:02.000Z</time></trkpt>
        <trkpt lat="53.33065747" lon="-1.79454208"><ele>419.26998901</ele><time>2015-06-07T12:59:12.000Z</time></trkpt>
        <trkpt lat="53.33070131" lon="-1.79443798"><ele>419.26998901</ele><time>2015-06-07T12:59:18.000Z</time></trkpt>
        <trkpt lat="53.33086040" lon="-1.79412927"><ele>418.30999756</ele><time>2015-06-07T12:59:37.000Z</time></trkpt>
        <trkpt lat="53.33100121" lon="-1.79384370"><ele>413.98001099</ele><time>2015-06-07T12:59:55.000Z</time></trkpt>
        <trkpt lat="53.33101722" lon="-1.79378838"><ele>413.98001099</ele><time>2015-06-07T12:59:58.000Z</time></trkpt>
        <trkpt lat="53.33104002" lon="-1.79371261"><ele>413.50000000</ele><time>2015-06-07T13:00:02.000Z</time></trkpt>
        <trkpt lat="53.33114731" lon="-1.79349912"><ele>411.57998657</ele><time>2015-06-07T13:00:17.000Z</time></trkpt>
        <trkpt lat="53.33119165" lon="-1.79333257"><ele>410.61999512</ele><time>2015-06-07T13:00:32.000Z</time></trkpt>
        <trkpt lat="53.33125192" lon="-1.79315052"><ele>408.70001221</ele><time>2015-06-07T13:00:47.000Z</time></trkpt>
        <trkpt lat="53.33126499" lon="-1.79306393"><ele>408.22000122</ele><time>2015-06-07T13:01:04.000Z</time></trkpt>
        <trkpt lat="53.33125066" lon="-1.79292555"><ele>406.76998901</ele><time>2015-06-07T13:01:16.000Z</time></trkpt>
        <trkpt lat="53.33128218" lon="-1.79254828"><ele>405.32998657</ele><time>2015-06-07T13:01:35.000Z</time></trkpt>
        <trkpt lat="53.33130179" lon="-1.79236715"><ele>404.85000610</ele><time>2015-06-07T13:01:45.000Z</time></trkpt>
        <trkpt lat="53.33131973" lon="-1.79231367"><ele>404.85000610</ele><time>2015-06-07T13:01:49.000Z</time></trkpt>
        <trkpt lat="53.33133649" lon="-1.79219322"><ele>404.85000610</ele><time>2015-06-07T13:01:56.000Z</time></trkpt>
        <trkpt lat="53.33131637" lon="-1.79210622"><ele>404.36999512</ele><time>2015-06-07T13:02:07.000Z</time></trkpt>
        <trkpt lat="53.33132241" lon="-1.79207336"><ele>403.41000366</ele><time>2015-06-07T13:02:16.000Z</time></trkpt>
        <trkpt lat="53.33133859" lon="-1.79198879"><ele>402.92999268</ele><time>2015-06-07T13:02:21.000Z</time></trkpt>
        <trkpt lat="53.33137748" lon="-1.79179232"><ele>402.45001221</ele><time>2015-06-07T13:02:34.000Z</time></trkpt>
        <trkpt lat="53.33144722" lon="-1.79149442"><ele>402.92999268</ele><time>2015-06-07T13:02:50.000Z</time></trkpt>
        <trkpt lat="53.33149223" lon="-1.79122721"><ele>401.97000122</ele><time>2015-06-07T13:03:04.000Z</time></trkpt>
        <trkpt lat="53.33149298" lon="-1.79085002"><ele>402.92999268</ele><time>2015-06-07T13:03:23.000Z</time></trkpt>
        <trkpt lat="53.33148862" lon="-1.79055414"><ele>401.97000122</ele><time>2015-06-07T13:03:38.000Z</time></trkpt>
        <trkpt lat="53.33147697" lon="-1.79051223"><ele>401.48999023</ele><time>2015-06-07T13:03:40.000Z</time></trkpt>
        <trkpt lat="53.33148435" lon="-1.79026622"><ele>401.01000977</ele><time>2015-06-07T13:03:52.000Z</time></trkpt>
        <trkpt lat="53.33150958" lon="-1.78992826"><ele>397.64001465</ele><time>2015-06-07T13:04:09.000Z</time></trkpt>
        <trkpt lat="53.33154084" lon="-1.78969533"><ele>396.67999268</ele><time>2015-06-07T13:04:23.000Z</time></trkpt>
        <trkpt lat="53.33153992" lon="-1.78960053"><ele>397.16000366</ele><time>2015-06-07T13:04:38.000Z</time></trkpt>
        <trkpt lat="53.33156666" lon="-1.78953649"><ele>397.16000366</ele><time>2015-06-07T13:04:48.000Z</time></trkpt>
        <trkpt lat="53.33172097" lon="-1.78938612"><ele>394.76000977</ele><time>2015-06-07T13:05:04.000Z</time></trkpt>
        <trkpt lat="53.33172910" lon="-1.78938403"><ele>394.27999878</ele><time>2015-06-07T13:05:05.000Z</time></trkpt>
        <trkpt lat="53.33190076" lon="-1.78924832"><ele>391.86999512</ele><time>2015-06-07T13:05:21.000Z</time></trkpt>
        <trkpt lat="53.33195122" lon="-1.78921212"><ele>391.86999512</ele><time>2015-06-07T13:05:26.000Z</time></trkpt>
        <trkpt lat="53.33208022" lon="-1.78916543"><ele>391.86999512</ele><time>2015-06-07T13:05:41.000Z</time></trkpt>
        <trkpt lat="53.33213998" lon="-1.78914213"><ele>392.35998535</ele><time>2015-06-07T13:05:46.000Z</time></trkpt>
        <trkpt lat="53.33219740" lon="-1.78915453"><ele>391.86999512</ele><time>2015-06-07T13:05:51.000Z</time></trkpt>
        <trkpt lat="53.33238993" lon="-1.78908949"><ele>388.98999023</ele><time>2015-06-07T13:06:07.000Z</time></trkpt>
        <trkpt lat="53.33251297" lon="-1.78901631"><ele>389.47000122</ele><time>2015-06-07T13:06:18.000Z</time></trkpt>
        <trkpt lat="53.33259964" lon="-1.78896703"><ele>389.47000122</ele><time>2015-06-07T13:06:31.000Z</time></trkpt>
        <trkpt lat="53.33277223" lon="-1.78881993"><ele>389.47000122</ele><time>2015-06-07T13:06:47.000Z</time></trkpt>
        <trkpt lat="53.33295981" lon="-1.78871364"><ele>388.02999878</ele><time>2015-06-07T13:07:03.000Z</time></trkpt>
        <trkpt lat="53.33305830" lon="-1.78866084"><ele>387.54998779</ele><time>2015-06-07T13:07:11.000Z</time></trkpt>
        <trkpt lat="53.33320079" lon="-1.78861432"><ele>386.10998535</ele><time>2015-06-07T13:07:24.000Z</time></trkpt>
        <trkpt lat="53.33329383" lon="-1.78857794"><ele>385.63000488</ele><time>2015-06-07T13:07:32.000Z</time></trkpt>
        <trkpt lat="53.33342166" lon="-1.78850963"><ele>385.14999390</ele><time>2015-06-07T13:07:43.000Z</time></trkpt>
        <trkpt lat="53.33358301" lon="-1.78842715"><ele>381.77999878</ele><time>2015-06-07T13:07:57.000Z</time></trkpt>
        <trkpt lat="53.33370748" lon="-1.78834216"><ele>378.42001343</ele><time>2015-06-07T13:08:09.000Z</time></trkpt>
        <trkpt lat="53.33391057" lon="-1.78815943"><ele>378.42001343</ele><time>2015-06-07T13:08:29.000Z</time></trkpt>
        <trkpt lat="53.33406790" lon="-1.78808324"><ele>375.52999878</ele><time>2015-06-07T13:08:42.000Z</time></trkpt>
        <trkpt lat="53.33417938" lon="-1.78800973"><ele>374.08999634</ele><time>2015-06-07T13:08:55.000Z</time></trkpt>
        <trkpt lat="53.33433428" lon="-1.78786154"><ele>372.64999390</ele><time>2015-06-07T13:09:11.000Z</time></trkpt>
        <trkpt lat="53.33435255" lon="-1.78783757"><ele>372.17001343</ele><time>2015-06-07T13:09:13.000Z</time></trkpt>
        <trkpt lat="53.33446101" lon="-1.78772902"><ele>371.20999146</ele><time>2015-06-07T13:09:26.000Z</time></trkpt>
        <trkpt lat="53.33447970" lon="-1.78770631"><ele>371.20999146</ele><time>2015-06-07T13:09:28.000Z</time></trkpt>
        <trkpt lat="53.33462362" lon="-1.78753842"><ele>368.79998779</ele><time>2015-06-07T13:09:42.000Z</time></trkpt>
        <trkpt lat="53.33465581" lon="-1.78748284"><ele>368.32000732</ele><time>2015-06-07T13:09:46.000Z</time></trkpt>
        <trkpt lat="53.33472328" lon="-1.78741269"><ele>367.83999634</ele><time>2015-06-07T13:09:52.000Z</time></trkpt>
        <trkpt lat="53.33476586" lon="-1.78730909"><ele>366.88000488</ele><time>2015-06-07T13:09:58.000Z</time></trkpt>
        <trkpt lat="53.33481305" lon="-1.78724891"><ele>366.88000488</ele><time>2015-06-07T13:10:03.000Z</time></trkpt>
        <trkpt lat="53.33484884" lon="-1.78717783"><ele>366.39999390</ele><time>2015-06-07T13:10:08.000Z</time></trkpt>
        <trkpt lat="53.33491037" lon="-1.78702352"><ele>366.39999390</ele><time>2015-06-07T13:10:18.000Z</time></trkpt>
        <trkpt lat="53.33493727" lon="-1.78695428"><ele>364.95999146</ele><time>2015-06-07T13:10:23.000Z</time></trkpt>
        <trkpt lat="53.33497717" lon="-1.78689988"><ele>364.00000000</ele><time>2015-06-07T13:10:28.000Z</time></trkpt>
        <trkpt lat="53.33506241" lon="-1.78676871"><ele>362.07000732</ele><time>2015-06-07T13:10:39.000Z</time></trkpt>
        <trkpt lat="53.33512595" lon="-1.78670408"><ele>361.10998535</ele><time>2015-06-07T13:10:46.000Z</time></trkpt>
        <trkpt lat="53.33519954" lon="-1.78661825"><ele>361.58999634</ele><time>2015-06-07T13:10:58.000Z</time></trkpt>
        <trkpt lat="53.33530784" lon="-1.78640451"><ele>361.58999634</ele><time>2015-06-07T13:11:14.000Z</time></trkpt>
        <trkpt lat="53.33544781" lon="-1.78615825"><ele>360.14999390</ele><time>2015-06-07T13:11:31.000Z</time></trkpt>
        <trkpt lat="53.33547774" lon="-1.78606546"><ele>359.67001343</ele><time>2015-06-07T13:11:37.000Z</time></trkpt>
        <trkpt lat="53.33555795" lon="-1.78579967"><ele>359.19000244</ele><time>2015-06-07T13:11:54.000Z</time></trkpt>
        <trkpt lat="53.33556868" lon="-1.78569180"><ele>358.70999146</ele><time>2015-06-07T13:12:00.000Z</time></trkpt>
        <trkpt lat="53.33556223" lon="-1.78537530"><ele>353.89999390</ele><time>2015-06-07T13:12:15.000Z</time></trkpt>
        <trkpt lat="53.33557606" lon="-1.78504757"><ele>351.98001099</ele><time>2015-06-07T13:12:32.000Z</time></trkpt>
        <trkpt lat="53.33556365" lon="-1.78481715"><ele>350.54000854</ele><time>2015-06-07T13:12:44.000Z</time></trkpt>
        <trkpt lat="53.33559995" lon="-1.78451079"><ele>350.05999756</ele><time>2015-06-07T13:12:59.000Z</time></trkpt>
        <trkpt lat="53.33561067" lon="-1.78441918"><ele>349.10000610</ele><time>2015-06-07T13:13:07.000Z</time></trkpt>
        <trkpt lat="53.33562702" lon="-1.78437576"><ele>347.64999390</ele><time>2015-06-07T13:13:13.000Z</time></trkpt>
        <trkpt lat="53.33567270" lon="-1.78415355"><ele>347.64999390</ele><time>2015-06-07T13:13:27.000Z</time></trkpt>
        <trkpt lat="53.33570472" lon="-1.78391852"><ele>347.17001343</ele><time>2015-06-07T13:13:40.000Z</time></trkpt>
        <trkpt lat="53.33574881" lon="-1.78369330"><ele>345.73001099</ele><time>2015-06-07T13:13:53.000Z</time></trkpt>
        <trkpt lat="53.33574898" lon="-1.78367184"><ele>345.73001099</ele><time>2015-06-07T13:13:54.000Z</time></trkpt>
        <trkpt lat="53.33574244" lon="-1.78360923"><ele>345.25000000</ele><time>2015-06-07T13:13:57.000Z</time></trkpt>
        <trkpt lat="53.33575912" lon="-1.78349256"><ele>343.80999756</ele><time>2015-06-07T13:14:03.000Z</time></trkpt>
        <trkpt lat="53.33580815" lon="-1.78325099"><ele>342.36999512</ele><time>2015-06-07T13:14:16.000Z</time></trkpt>
        <trkpt lat="53.33581863" lon="-1.78318142"><ele>341.41000366</ele><time>2015-06-07T13:14:20.000Z</time></trkpt>
        <trkpt lat="53.33583238" lon="-1.78300062"><ele>340.44000244</ele><time>2015-06-07T13:14:30.000Z</time></trkpt>
        <trkpt lat="53.33583858" lon="-1.78296785"><ele>340.92001343</ele><time>2015-06-07T13:14:32.000Z</time></trkpt>
        <trkpt lat="53.33586699" lon="-1.78263668"><ele>339.48001099</ele><time>2015-06-07T13:14:48.000Z</time></trkpt>
        <trkpt lat="53.33587336" lon="-1.78238849"><ele>337.55999756</ele><time>2015-06-07T13:15:02.000Z</time></trkpt>
        <trkpt lat="53.33586892" lon="-1.78214676"><ele>337.07998657</ele><time>2015-06-07T13:15:15.000Z</time></trkpt>
        <trkpt lat="53.33585844" lon="-1.78187770"><ele>335.16000366</ele><time>2015-06-07T13:15:28.000Z</time></trkpt>
        <trkpt lat="53.33583212" lon="-1.78165910"><ele>333.23001099</ele><time>2015-06-07T13:15:41.000Z</time></trkpt>
        <trkpt lat="53.33583036" lon="-1.78145483"><ele>332.26998901</ele><time>2015-06-07T13:15:55.000Z</time></trkpt>
        <trkpt lat="53.33581167" lon="-1.78126884"><ele>329.39001465</ele><time>2015-06-07T13:16:06.000Z</time></trkpt>
        <trkpt lat="53.33581209" lon="-1.78107354"><ele>328.91000366</ele><time>2015-06-07T13:16:19.000Z</time></trkpt>
        <trkpt lat="53.33581125" lon="-1.78088604"><ele>326.98999023</ele><time>2015-06-07T13:16:31.000Z</time></trkpt>
        <trkpt lat="53.33583288" lon="-1.78066450"><ele>325.54000854</ele><time>2015-06-07T13:16:45.000Z</time></trkpt>
        <trkpt lat="53.33585191" lon="-1.78056685"><ele>323.61999512</ele><time>2015-06-07T13:16:59.000Z</time></trkpt>
        <trkpt lat="53.33585006" lon="-1.78050801"><ele>322.66000366</ele><time>2015-06-07T13:17:07.000Z</time></trkpt>
        <trkpt lat="53.33588049" lon="-1.78037348"><ele>323.14001465</ele><time>2015-06-07T13:17:17.000Z</time></trkpt>
        <trkpt lat="53.33589306" lon="-1.78034683"><ele>323.14001465</ele><time>2015-06-07T13:17:19.000Z</time></trkpt>
        <trkpt lat="53.33588962" lon="-1.78027935"><ele>323.14001465</ele><time>2015-06-07T13:17:23.000Z</time></trkpt>
        <trkpt lat="53.33592843" lon="-1.78008020"><ele>322.66000366</ele><time>2015-06-07T13:17:36.000Z</time></trkpt>
        <trkpt lat="53.33592986" lon="-1.78004231"><ele>322.17999268</ele><time>2015-06-07T13:17:38.000Z</time></trkpt>
        <trkpt lat="53.33594453" lon="-1.77998004"><ele>321.70001221</ele><time>2015-06-07T13:17:42.000Z</time></trkpt>
        <trkpt lat="53.33596741" lon="-1.77994148"><ele>321.22000122</ele><time>2015-06-07T13:17:45.000Z</time></trkpt>
        <trkpt lat="53.33600932" lon="-1.77985012"><ele>320.73999023</ele><time>2015-06-07T13:17:53.000Z</time></trkpt>
        <trkpt lat="53.33604368" lon="-1.77977677"><ele>321.22000122</ele><time>2015-06-07T13:17:59.000Z</time></trkpt>
        <trkpt lat="53.33610286" lon="-1.77960662"><ele>321.22000122</ele><time>2015-06-07T13:18:12.000Z</time></trkpt>
        <trkpt lat="53.33614058" lon="-1.77953253"><ele>320.26000977</ele><time>2015-06-07T13:18:19.000Z</time></trkpt>
        <trkpt lat="53.33622255" lon="-1.77930613"><ele>316.89001465</ele><time>2015-06-07T13:18:35.000Z</time></trkpt>
        <trkpt lat="53.33623479" lon="-1.77926104"><ele>317.36999512</ele><time>2015-06-07T13:18:38.000Z</time></trkpt>
        <trkpt lat="53.33627427" lon="-1.77911645"><ele>314.97000122</ele><time>2015-06-07T13:18:48.000Z</time></trkpt>
        <trkpt lat="53.33632272" lon="-1.77890732"><ele>310.64001465</ele><time>2015-06-07T13:19:02.000Z</time></trkpt>
        <trkpt lat="53.33632699" lon="-1.77883599"><ele>311.60000610</ele><time>2015-06-07T13:19:19.000Z</time></trkpt>
        <trkpt lat="53.33638583" lon="-1.77879777"><ele>308.72000122</ele><time>2015-06-07T13:19:32.000Z</time></trkpt>
        <trkpt lat="53.33640503" lon="-1.77876307"><ele>308.23999023</ele><time>2015-06-07T13:19:45.000Z</time></trkpt>
        <trkpt lat="53.33643906" lon="-1.77872342"><ele>308.23999023</ele><time>2015-06-07T13:19:56.000Z</time></trkpt>
        <trkpt lat="53.33650050" lon="-1.77865477"><ele>307.76000977</ele><time>2015-06-07T13:20:08.000Z</time></trkpt>
        <trkpt lat="53.33651944" lon="-1.77866114"><ele>307.76000977</ele><time>2015-06-07T13:20:24.000Z</time></trkpt>
        <trkpt lat="53.33657057" lon="-1.77861848"><ele>306.32000732</ele><time>2015-06-07T13:20:37.000Z</time></trkpt>
        <trkpt lat="53.33658868" lon="-1.77859006"><ele>306.32000732</ele><time>2015-06-07T13:20:48.000Z</time></trkpt>
        <trkpt lat="53.33661432" lon="-1.77859216"><ele>305.35998535</ele><time>2015-06-07T13:20:58.000Z</time></trkpt>
        <trkpt lat="53.33663695" lon="-1.77857255"><ele>304.39001465</ele><time>2015-06-07T13:21:10.000Z</time></trkpt>
        <trkpt lat="53.33669437" lon="-1.77851748"><ele>302.47000122</ele><time>2015-06-07T13:21:21.000Z</time></trkpt>
        <trkpt lat="53.33672547" lon="-1.77846886"><ele>301.51000977</ele><time>2015-06-07T13:21:34.000Z</time></trkpt>
        <trkpt lat="53.33675195" lon="-1.77842276"><ele>300.54998779</ele><time>2015-06-07T13:21:46.000Z</time></trkpt>
        <trkpt lat="53.33678833" lon="-1.77839242"><ele>300.07000732</ele><time>2015-06-07T13:22:05.000Z</time></trkpt>
        <trkpt lat="53.33688196" lon="-1.77831849"><ele>296.70001221</ele><time>2015-06-07T13:22:17.000Z</time></trkpt>
        <trkpt lat="53.33695094" lon="-1.77822160"><ele>294.77999878</ele><time>2015-06-07T13:22:29.000Z</time></trkpt>
        <trkpt lat="53.33698438" lon="-1.77818933"><ele>292.85998535</ele><time>2015-06-07T13:22:42.000Z</time></trkpt>
        <trkpt lat="53.33699654" lon="-1.77816963"><ele>292.38000488</ele><time>2015-06-07T13:22:56.000Z</time></trkpt>
        <trkpt lat="53.33702118" lon="-1.77812822"><ele>288.52999878</ele><time>2015-06-07T13:23:16.000Z</time></trkpt>
        <trkpt lat="53.33702680" lon="-1.77814658"><ele>288.52999878</ele><time>2015-06-07T13:23:29.000Z</time></trkpt>
        <trkpt lat="53.33702101" lon="-1.77815261"><ele>288.04998779</ele><time>2015-06-07T13:23:56.000Z</time></trkpt>
        <trkpt lat="53.33702764" lon="-1.77815144"><ele>287.57000732</ele><time>2015-06-07T13:24:18.000Z</time></trkpt>
        <trkpt lat="53.33702738" lon="-1.77815312"><ele>287.08999634</ele><time>2015-06-07T13:24:30.000Z</time></trkpt>
        <trkpt lat="53.33704742" lon="-1.77816644"><ele>285.64999390</ele><time>2015-06-07T13:24:40.000Z</time></trkpt>
        <trkpt lat="53.33704825" lon="-1.77816644"><ele>285.64999390</ele><time>2015-06-07T13:25:04.000Z</time></trkpt>
        <trkpt lat="53.33705303" lon="-1.77815882"><ele>285.64999390</ele><time>2015-06-07T13:25:17.000Z</time></trkpt>
        <trkpt lat="53.33707030" lon="-1.77815211"><ele>284.20999146</ele><time>2015-06-07T13:25:26.000Z</time></trkpt>
        <trkpt lat="53.33707625" lon="-1.77813660"><ele>283.73001099</ele><time>2015-06-07T13:25:39.000Z</time></trkpt>
        <trkpt lat="53.33710299" lon="-1.77812168"><ele>281.32000732</ele><time>2015-06-07T13:25:55.000Z</time></trkpt>
        <trkpt lat="53.33713987" lon="-1.77810316"><ele>281.32000732</ele><time>2015-06-07T13:26:12.000Z</time></trkpt>
        <trkpt lat="53.33715395" lon="-1.77809260"><ele>282.27999878</ele><time>2015-06-07T13:26:24.000Z</time></trkpt>
        <trkpt lat="53.33721774" lon="-1.77807223"><ele>285.17001343</ele><time>2015-06-07T13:26:36.000Z</time></trkpt>
        <trkpt lat="53.33724506" lon="-1.77806142"><ele>285.64999390</ele><time>2015-06-07T13:26:49.000Z</time></trkpt>
        <trkpt lat="53.33728421" lon="-1.77803451"><ele>286.60998535</ele><time>2015-06-07T13:26:59.000Z</time></trkpt>
        <trkpt lat="53.33742787" lon="-1.77806293"><ele>285.17001343</ele><time>2015-06-07T13:27:12.000Z</time></trkpt>
        <trkpt lat="53.33745352" lon="-1.77805329"><ele>285.64999390</ele><time>2015-06-07T13:27:16.000Z</time></trkpt>
        <trkpt lat="53.33750423" lon="-1.77808983"><ele>283.73001099</ele><time>2015-06-07T13:27:27.000Z</time></trkpt>
        <trkpt lat="53.33760682" lon="-1.77810668"><ele>278.44000244</ele><time>2015-06-07T13:27:38.000Z</time></trkpt>
        <trkpt lat="53.33767019" lon="-1.77821103"><ele>274.10998535</ele><time>2015-06-07T13:27:52.000Z</time></trkpt>
        <trkpt lat="53.33768168" lon="-1.77822579"><ele>275.55999756</ele><time>2015-06-07T13:28:05.000Z</time></trkpt>
        <trkpt lat="53.33768042" lon="-1.77822855"><ele>275.07000732</ele><time>2015-06-07T13:28:30.000Z</time></trkpt>
        <trkpt lat="53.33768293" lon="-1.77823367"><ele>274.10998535</ele><time>2015-06-07T13:28:56.000Z</time></trkpt>
        <trkpt lat="53.33766810" lon="-1.77822487"><ele>273.14999390</ele><time>2015-06-07T13:29:15.000Z</time></trkpt>
        <trkpt lat="53.33771797" lon="-1.77816125"><ele>269.30999756</ele><time>2015-06-07T13:29:30.000Z</time></trkpt>
        <trkpt lat="53.33775267" lon="-1.77809905"><ele>267.85998535</ele><time>2015-06-07T13:29:41.000Z</time></trkpt>
        <trkpt lat="53.33785258" lon="-1.77804474"><ele>265.45999146</ele><time>2015-06-07T13:29:53.000Z</time></trkpt>
        <trkpt lat="53.33794705" lon="-1.77802328"><ele>263.54000854</ele><time>2015-06-07T13:30:07.000Z</time></trkpt>
        <trkpt lat="53.33796750" lon="-1.77800082"><ele>262.57998657</ele><time>2015-06-07T13:30:12.000Z</time></trkpt>
        <trkpt lat="53.33799248" lon="-1.77798791"><ele>261.61999512</ele><time>2015-06-07T13:30:16.000Z</time></trkpt>
        <trkpt lat="53.33803464" lon="-1.77794323"><ele>260.17001343</ele><time>2015-06-07T13:30:26.000Z</time></trkpt>
        <trkpt lat="53.33807294" lon="-1.77789696"><ele>260.17001343</ele><time>2015-06-07T13:30:35.000Z</time></trkpt>
        <trkpt lat="53.33813388" lon="-1.77786042"><ele>257.76998901</ele><time>2015-06-07T13:30:47.000Z</time></trkpt>
        <trkpt lat="53.33819708" lon="-1.77780636"><ele>257.76998901</ele><time>2015-06-07T13:30:59.000Z</time></trkpt>
        <trkpt lat="53.33827847" lon="-1.77774123"><ele>259.69000244</ele><time>2015-06-07T13:31:12.000Z</time></trkpt>
        <trkpt lat="53.33836606" lon="-1.77762908"><ele>265.45999146</ele><time>2015-06-07T13:31:28.000Z</time></trkpt>
        <trkpt lat="53.33838374" lon="-1.77761626"><ele>266.42001343</ele><time>2015-06-07T13:31:30.000Z</time></trkpt>
        <trkpt lat="53.33850805" lon="-1.77759186"><ele>268.82998657</ele><time>2015-06-07T13:31:43.000Z</time></trkpt>
        <trkpt lat="53.33855859" lon="-1.77762816"><ele>265.94000244</ele><time>2015-06-07T13:31:51.000Z</time></trkpt>
        <trkpt lat="53.33864375" lon="-1.77763964"><ele>264.50000000</ele><time>2015-06-07T13:32:03.000Z</time></trkpt>
        <trkpt lat="53.33865481" lon="-1.77763897"><ele>264.01998901</ele><time>2015-06-07T13:32:04.000Z</time></trkpt>
        <trkpt lat="53.33875054" lon="-1.77776730"><ele>258.73001099</ele><time>2015-06-07T13:32:18.000Z</time></trkpt>
        <trkpt lat="53.33877199" lon="-1.77774475"><ele>257.76998901</ele><time>2015-06-07T13:32:22.000Z</time></trkpt>
        <trkpt lat="53.33893133" lon="-1.77766185"><ele>249.60000610</ele><time>2015-06-07T13:32:39.000Z</time></trkpt>
        <trkpt lat="53.33903627" lon="-1.77755515"><ele>246.72000122</ele><time>2015-06-07T13:32:53.000Z</time></trkpt>
        <trkpt lat="53.33907617" lon="-1.77749405"><ele>243.35000610</ele><time>2015-06-07T13:33:05.000Z</time></trkpt>
        <trkpt lat="53.33911867" lon="-1.77743747"><ele>242.86999512</ele><time>2015-06-07T13:33:11.000Z</time></trkpt>
        <trkpt lat="53.33919117" lon="-1.77730478"><ele>242.86999512</ele><time>2015-06-07T13:33:22.000Z</time></trkpt>
        <trkpt lat="53.33921724" lon="-1.77724997"><ele>242.38999939</ele><time>2015-06-07T13:33:26.000Z</time></trkpt>
        <trkpt lat="53.33923417" lon="-1.77720839"><ele>242.38999939</ele><time>2015-06-07T13:33:29.000Z</time></trkpt>
        <trkpt lat="53.33930248" lon="-1.77712784"><ele>241.91000366</ele><time>2015-06-07T13:33:36.000Z</time></trkpt>
        <trkpt lat="53.33932746" lon="-1.77706464"><ele>240.94999695</ele><time>2015-06-07T13:33:40.000Z</time></trkpt>
        <trkpt lat="53.33937700" lon="-1.77698040"><ele>238.53999329</ele><time>2015-06-07T13:33:46.000Z</time></trkpt>
        <trkpt lat="53.33948865" lon="-1.77676918"><ele>236.61999512</ele><time>2015-06-07T13:34:02.000Z</time></trkpt>
        <trkpt lat="53.33948454" lon="-1.77673582"><ele>236.13999939</ele><time>2015-06-07T13:34:04.000Z</time></trkpt>
        <trkpt lat="53.33949208" lon="-1.77667949"><ele>236.13999939</ele><time>2015-06-07T13:34:07.000Z</time></trkpt>
        <trkpt lat="53.33951237" lon="-1.77663071"><ele>235.17999268</ele><time>2015-06-07T13:34:10.000Z</time></trkpt>
        <trkpt lat="53.33956978" lon="-1.77648813"><ele>235.17999268</ele><time>2015-06-07T13:34:21.000Z</time></trkpt>
        <trkpt lat="53.33957565" lon="-1.77647447"><ele>235.17999268</ele><time>2015-06-07T13:34:22.000Z</time></trkpt>
        <trkpt lat="53.33960163" lon="-1.77644723"><ele>234.69999695</ele><time>2015-06-07T13:34:25.000Z</time></trkpt>
        <trkpt lat="53.33961563" lon="-1.77640138"><ele>234.69999695</ele><time>2015-06-07T13:34:28.000Z</time></trkpt>
        <trkpt lat="53.33964916" lon="-1.77633089"><ele>233.74000549</ele><time>2015-06-07T13:34:33.000Z</time></trkpt>
        <trkpt lat="53.33966039" lon="-1.77630231"><ele>233.74000549</ele><time>2015-06-07T13:34:35.000Z</time></trkpt>
        <trkpt lat="53.33969451" lon="-1.77627599"><ele>233.74000549</ele><time>2015-06-07T13:34:38.000Z</time></trkpt>
        <trkpt lat="53.33979861" lon="-1.77614473"><ele>232.77999878</ele><time>2015-06-07T13:34:49.000Z</time></trkpt>
        <trkpt lat="53.33990741" lon="-1.77601271"><ele>231.80999756</ele><time>2015-06-07T13:35:00.000Z</time></trkpt>
        <trkpt lat="53.33993674" lon="-1.77599385"><ele>231.33000183</ele><time>2015-06-07T13:35:03.000Z</time></trkpt>
        <trkpt lat="53.34002341" lon="-1.77591381"><ele>230.36999512</ele><time>2015-06-07T13:35:12.000Z</time></trkpt>
        <trkpt lat="53.34005920" lon="-1.77581272"><ele>230.85000610</ele><time>2015-06-07T13:35:20.000Z</time></trkpt>
        <trkpt lat="53.34012483" lon="-1.77572094"><ele>227.49000549</ele><time>2015-06-07T13:35:28.000Z</time></trkpt>
        <trkpt lat="53.34015459" lon="-1.77569571"><ele>226.05000305</ele><time>2015-06-07T13:35:34.000Z</time></trkpt>
        <trkpt lat="53.34019264" lon="-1.77564550"><ele>225.57000732</ele><time>2015-06-07T13:35:39.000Z</time></trkpt>
        <trkpt lat="53.34029834" lon="-1.77557627"><ele>225.57000732</ele><time>2015-06-07T13:35:53.000Z</time></trkpt>
        <trkpt lat="53.34032156" lon="-1.77556847"><ele>226.52999878</ele><time>2015-06-07T13:35:56.000Z</time></trkpt>
        <trkpt lat="53.34043656" lon="-1.77559563"><ele>230.36999512</ele><time>2015-06-07T13:36:12.000Z</time></trkpt>
        <trkpt lat="53.34052063" lon="-1.77558440"><ele>234.22000122</ele><time>2015-06-07T13:36:25.000Z</time></trkpt>
        <trkpt lat="53.34058332" lon="-1.77547451"><ele>236.61999512</ele><time>2015-06-07T13:36:36.000Z</time></trkpt>
        <trkpt lat="53.34065222" lon="-1.77529363"><ele>238.05999756</ele><time>2015-06-07T13:36:51.000Z</time></trkpt>
        <trkpt lat="53.34069665" lon="-1.77526396"><ele>238.53999329</ele><time>2015-06-07T13:37:03.000Z</time></trkpt>
        <trkpt lat="53.34072129" lon="-1.77524141"><ele>238.53999329</ele><time>2015-06-07T13:37:14.000Z</time></trkpt>
        <trkpt lat="53.34074518" lon="-1.77522188"><ele>239.50999451</ele><time>2015-06-07T13:37:26.000Z</time></trkpt>
        <trkpt lat="53.34080528" lon="-1.77520093"><ele>244.30999756</ele><time>2015-06-07T13:37:40.000Z</time></trkpt>
        <trkpt lat="53.34082422" lon="-1.77522247"><ele>247.67999268</ele><time>2015-06-07T13:37:47.000Z</time></trkpt>
        <trkpt lat="53.34100217" lon="-1.77541802"><ele>254.41000366</ele><time>2015-06-07T13:38:03.000Z</time></trkpt>
        <trkpt lat="53.34113946" lon="-1.77524158"><ele>245.75000000</ele><time>2015-06-07T13:38:16.000Z</time></trkpt>
        <trkpt lat="53.34121767" lon="-1.77525306"><ele>243.35000610</ele><time>2015-06-07T13:38:29.000Z</time></trkpt>
        <trkpt lat="53.34136410" lon="-1.77520570"><ele>238.05999756</ele><time>2015-06-07T13:38:42.000Z</time></trkpt>
        <trkpt lat="53.34145010" lon="-1.77516321"><ele>234.69999695</ele><time>2015-06-07T13:38:55.000Z</time></trkpt>
        <trkpt lat="53.34145906" lon="-1.77516094"><ele>234.69999695</ele><time>2015-06-07T13:38:58.000Z</time></trkpt>
        <trkpt lat="53.34148186" lon="-1.77518718"><ele>234.22000122</ele><time>2015-06-07T13:39:03.000Z</time></trkpt>
        <trkpt lat="53.34149318" lon="-1.77519003"><ele>237.58000183</ele><time>2015-06-07T13:39:07.000Z</time></trkpt>
        <trkpt lat="53.34161698" lon="-1.77548373"><ele>248.16000366</ele><time>2015-06-07T13:39:22.000Z</time></trkpt>
        <trkpt lat="53.34170650" lon="-1.77538273"><ele>241.42999268</ele><time>2015-06-07T13:39:34.000Z</time></trkpt>
        <trkpt lat="53.34193055" lon="-1.77570258"><ele>229.88999939</ele><time>2015-06-07T13:39:50.000Z</time></trkpt>
        <trkpt lat="53.34198419" lon="-1.77585279"><ele>224.61000061</ele><time>2015-06-07T13:40:04.000Z</time></trkpt>
        <trkpt lat="53.34200431" lon="-1.77599628"><ele>224.11999512</ele><time>2015-06-07T13:40:17.000Z</time></trkpt>
        <trkpt lat="53.34200749" lon="-1.77606267"><ele>220.27999878</ele><time>2015-06-07T13:40:30.000Z</time></trkpt>
        <trkpt lat="53.34202157" lon="-1.77606569"><ele>220.27999878</ele><time>2015-06-07T13:40:32.000Z</time></trkpt>
        <trkpt lat="53.34214571" lon="-1.77608362"><ele>219.32000732</ele><time>2015-06-07T13:40:46.000Z</time></trkpt>
        <trkpt lat="53.34230362" lon="-1.77614733"><ele>213.55000305</ele><time>2015-06-07T13:41:02.000Z</time></trkpt>
        <trkpt lat="53.34239641" lon="-1.77620977"><ele>210.19000244</ele><time>2015-06-07T13:41:13.000Z</time></trkpt>
        <trkpt lat="53.34249917" lon="-1.77627356"><ele>208.74000549</ele><time>2015-06-07T13:41:28.000Z</time></trkpt>
        <trkpt lat="53.34250496" lon="-1.77627934"><ele>208.74000549</ele><time>2015-06-07T13:41:47.000Z</time></trkpt>
        <trkpt lat="53.34251720" lon="-1.77628445"><ele>208.74000549</ele><time>2015-06-07T13:42:15.000Z</time></trkpt>
        <trkpt lat="53.34261962" lon="-1.77630222"><ele>206.33999634</ele><time>2015-06-07T13:42:28.000Z</time></trkpt>
        <trkpt lat="53.34266782" lon="-1.77629468"><ele>203.94000244</ele><time>2015-06-07T13:42:33.000Z</time></trkpt>
        <trkpt lat="53.34276262" lon="-1.77626635"><ele>203.94000244</ele><time>2015-06-07T13:42:44.000Z</time></trkpt>
        <trkpt lat="53.34289958" lon="-1.77630801"><ele>208.25999451</ele><time>2015-06-07T13:42:56.000Z</time></trkpt>
        <trkpt lat="53.34301307" lon="-1.77633374"><ele>208.74000549</ele><time>2015-06-07T13:43:05.000Z</time></trkpt>
        <trkpt lat="53.34310795" lon="-1.77626903"><ele>206.82000732</ele><time>2015-06-07T13:43:16.000Z</time></trkpt>
        <trkpt lat="53.34312966" lon="-1.77632905"><ele>207.30000305</ele><time>2015-06-07T13:43:27.000Z</time></trkpt>
        <trkpt lat="53.34315799" lon="-1.77635419"><ele>208.25999451</ele><time>2015-06-07T13:43:30.000Z</time></trkpt>
        <trkpt lat="53.34317073" lon="-1.77646190"><ele>207.77999878</ele><time>2015-06-07T13:43:35.000Z</time></trkpt>
        <trkpt lat="53.34320996" lon="-1.77666692"><ele>206.33999634</ele><time>2015-06-07T13:43:47.000Z</time></trkpt>
        <trkpt lat="53.34325992" lon="-1.77691888"><ele>203.46000671</ele><time>2015-06-07T13:44:01.000Z</time></trkpt>
        <trkpt lat="53.34326511" lon="-1.77707906"><ele>200.08999634</ele><time>2015-06-07T13:44:10.000Z</time></trkpt>
        <trkpt lat="53.34330367" lon="-1.77711510"><ele>197.21000671</ele><time>2015-06-07T13:44:17.000Z</time></trkpt>
        <trkpt lat="53.34337961" lon="-1.77717419"><ele>194.80000305</ele><time>2015-06-07T13:44:28.000Z</time></trkpt>
        <trkpt lat="53.34346477" lon="-1.77738081"><ele>198.64999390</ele><time>2015-06-07T13:44:44.000Z</time></trkpt>
        <trkpt lat="53.34350207" lon="-1.77747326"><ele>199.61000061</ele><time>2015-06-07T13:44:55.000Z</time></trkpt>
        <trkpt lat="53.34351934" lon="-1.77752229"><ele>200.08999634</ele><time>2015-06-07T13:45:05.000Z</time></trkpt>
        <trkpt lat="53.34347701" lon="-1.77759279"><ele>194.32000732</ele><time>2015-06-07T13:45:26.000Z</time></trkpt>
        <trkpt lat="53.34347726" lon="-1.77760100"><ele>192.88000488</ele><time>2015-06-07T13:45:38.000Z</time></trkpt>
        <trkpt lat="53.34347541" lon="-1.77760846"><ele>192.39999390</ele><time>2015-06-07T13:46:02.000Z</time></trkpt>
        <trkpt lat="53.34348145" lon="-1.77761190"><ele>191.91999817</ele><time>2015-06-07T13:46:35.000Z</time></trkpt>
        <trkpt lat="53.34347391" lon="-1.77759874"><ele>192.39999390</ele><time>2015-06-07T13:47:11.000Z</time></trkpt>
        <trkpt lat="53.34346896" lon="-1.77759379"><ele>192.39999390</ele><time>2015-06-07T13:47:44.000Z</time></trkpt>
        <trkpt lat="53.34347768" lon="-1.77758189"><ele>191.91999817</ele><time>2015-06-07T13:48:22.000Z</time></trkpt>
        <trkpt lat="53.34348103" lon="-1.77760695"><ele>191.91999817</ele><time>2015-06-07T13:48:50.000Z</time></trkpt>
        <trkpt lat="53.34347667" lon="-1.77761877"><ele>192.39999390</ele><time>2015-06-07T13:49:10.000Z</time></trkpt>
        </trkseg>
    </trk>
</gpx>
